Observation data for Happy on 02/22/2019      Previous  Date  Next       Current Mesonet Observations  Soil Data  Daily Summary Page  Observations in Plain Language
KHA2 220600Z 09008KT M01/M05 A2991 RMK A01 T10091049  RH  074%=      5-min Rain = 0
KHA2 220601Z 09008KT M01/M05 A2991 RMK A01 T10091050  RH  074%=      5-min Rain = 0
KHA2 220602Z 09009KT M01/M05 A2991 RMK A01 T10091050  RH  074%=      5-min Rain = 0
KHA2 220603Z 09009KT M01/M05 A2991 RMK A01 T10091049  RH  074%=      5-min Rain = 0
KHA2 220604Z 09009KT M01/M05 A2991 RMK A01 T10091048  RH  075%=      5-min Rain = 0
KHA2 220605Z 09008KT M01/M05 A2991 RMK A01 T10091047  RH  075%=      5-min Rain = 0
KHA2 220606Z 09009KT M01/M05 A2991 RMK A01 T10091048  RH  075%=      5-min Rain = 0
KHA2 220607Z 09009KT M01/M05 A2991 RMK A01 T10091048  RH  075%=      5-min Rain = 0
KHA2 220608Z 09009KT M01/M05 A2991 RMK A01 T10091048  RH  075%=      5-min Rain = 0
KHA2 220609Z 09009KT M01/M05 A2991 RMK A01 T10081048  RH  075%=      5-min Rain = 0
KHA2 220610Z 09009KT M01/M05 A299 RMK A01 T10081048  RH  074%=      5-min Rain = 0
KHA2 220611Z 09009KT M01/M05 A299 RMK A01 T10081048  RH  074%=      5-min Rain = 0
KHA2 220612Z 10009KT M01/M05 A299 RMK A01 T10081048  RH  074%=      5-min Rain = 0
KHA2 220613Z 10009KT M01/M05 A299 RMK A01 T10091048  RH  074%=      5-min Rain = 0
KHA2 220614Z 10009KT M01/M05 A299 RMK A01 T10091048  RH  075%=      5-min Rain = 0
KHA2 220615Z 10009KT M01/M05 A299 RMK A01 T10091047  RH  075%=      5-min Rain = 0
KHA2 220616Z 10009KT M01/M05 A299 RMK A01 T10091047  RH  075%=      5-min Rain = 0
KHA2 220617Z 10009KT M01/M05 A299 RMK A01 T10091048  RH  075%=      5-min Rain = 0
KHA2 220618Z 10009KT M01/M05 A299 RMK A01 T10091049  RH  074%=      5-min Rain = 0
KHA2 220619Z 10009KT M01/M05 A299 RMK A01 T10091050  RH  074%=      5-min Rain = 0
KHA2 220620Z 10009KT M01/M05 A299 RMK A01 T10101051  RH  074%=      5-min Rain = 0
KHA2 220621Z 10009KT M01/M05 A299 RMK A01 T10101050  RH  074%=      5-min Rain = 0
KHA2 220622Z 10009KT M01/M05 A299 RMK A01 T10101050  RH  074%=      5-min Rain = 0
KHA2 220623Z 11009KT M01/M05 A299 RMK A01 T10091049  RH  074%=      5-min Rain = 0
KHA2 220624Z 10009KT M01/M05 A299 RMK A01 T10091049  RH  074%=      5-min Rain = 0
KHA2 220625Z 11008KT M01/M05 A299 RMK A01 T10101050  RH  074%=      5-min Rain = 0
KHA2 220626Z 11008KT M01/M05 A299 RMK A01 T10101050  RH  074%=      5-min Rain = 0
KHA2 220627Z 10008KT M01/M05 A299 RMK A01 T10101050  RH  074%=      5-min Rain = 0
KHA2 220628Z 10009KT M01/M05 A299 RMK A01 T10101050  RH  075%=      5-min Rain = 0
KHA2 220629Z 10009KT M01/M05 A299 RMK A01 T10101049  RH  075%=      5-min Rain = 0
KHA2 220630Z 10009KT M01/M05 A299 RMK A01 T10091047  RH  075%=      5-min Rain = 0
KHA2 220631Z 10009KT M01/M05 A299 RMK A01 T10091047  RH  076%=      5-min Rain = 0
KHA2 220632Z 10008KT M01/M05 A299 RMK A01 T10081046  RH  076%=      5-min Rain = 0
KHA2 220633Z 10009KT M01/M05 A299 RMK A01 T10081045  RH  076%=      5-min Rain = 0
KHA2 220634Z 10009KT M01/M05 A299 RMK A01 T10081045  RH  076%=      5-min Rain = 0
KHA2 220635Z 09009KT M01/M04 A299 RMK A01 T10071044  RH  076%=      5-min Rain = 0
KHA2 220636Z 09009KT M01/M05 A299 RMK A01 T10071045  RH  075%=      5-min Rain = 0
KHA2 220637Z 09009KT M01/M05 A299 RMK A01 T10071045  RH  075%=      5-min Rain = 0
KHA2 220638Z 09008KT M01/M05 A299 RMK A01 T10071045  RH  075%=      5-min Rain = 0
KHA2 220639Z 09009KT M01/M05 A299 RMK A01 T10071045  RH  075%=      5-min Rain = 0
KHA2 220640Z 09008KT M01/M05 A299 RMK A01 T10071045  RH  075%=      5-min Rain = 0
KHA2 220641Z 09008KT M01/M05 A299 RMK A01 T10071045  RH  075%=      5-min Rain = 0
KHA2 220642Z 10009KT M01/M05 A2991 RMK A01 T10071045  RH  075%=      5-min Rain = 0
KHA2 220643Z 10008KT M01/M05 A2991 RMK A01 T10071045  RH  075%=      5-min Rain = 0
KHA2 220644Z 10008KT M01/M05 A2991 RMK A01 T10081046  RH  075%=      5-min Rain = 0
KHA2 220645Z 10008KT M01/M05 A2991 RMK A01 T10081047  RH  075%=      5-min Rain = 0
KHA2 220646Z 10008KT M01/M05 A2991 RMK A01 T10091048  RH  075%=      5-min Rain = 0
KHA2 220647Z 10009KT M01/M05 A2991 RMK A01 T10101048  RH  076%=      5-min Rain = 0
KHA2 220648Z 10009KT M01/M05 A299 RMK A01 T10111048  RH  076%=      5-min Rain = 0
KHA2 220649Z 10009KT M01/M05 A299 RMK A01 T10111048  RH  076%=      5-min Rain = 0
KHA2 220650Z 10009KT M01/M05 A299 RMK A01 T10111048  RH  076%=      5-min Rain = 0
KHA2 220651Z 10009KT M01/M05 A299 RMK A01 T10111048  RH  076%=      5-min Rain = 0
KHA2 220652Z 10009KT M01/M05 A299 RMK A01 T10121048  RH  076%=      5-min Rain = 0
KHA2 220653Z 10010KT M01/M05 A299 RMK A01 T10121048  RH  077%=      5-min Rain = 0
KHA2 220654Z 11010KT M01/M05 A299 RMK A01 T10121047  RH  077%=      5-min Rain = 0
KHA2 220655Z 11009KT M01/M05 A299 RMK A01 T10121047  RH  077%=      5-min Rain = 0
KHA2 220656Z 11009KT M01/M05 A299 RMK A01 T10121047  RH  077%=      5-min Rain = 0
KHA2 220657Z 11009KT M01/M05 A299 RMK A01 T10131049  RH  077%=      5-min Rain = 0
KHA2 220658Z 11009KT M01/M05 A299 RMK A01 T10131049  RH  077%=      5-min Rain = 0
KHA2 220659Z 11008KT M01/M05 A2991 RMK A01 T10141048  RH  077%=      5-min Rain = 0
KHA2 220700Z 11008KT M01/M05 A2991 RMK A01 T10141049  RH  077%=      5-min Rain = 0
KHA2 220701Z 10008KT M02/M05 A299 RMK A01 T10151049  RH  077%=      5-min Rain = 0
KHA2 220702Z 10008KT M02/M05 A299 RMK A01 T10151048  RH  078%=      5-min Rain = 0
KHA2 220703Z 10008KT M02/M05 A299 RMK A01 T10151047  RH  078%=      5-min Rain = 0
KHA2 220704Z 10008KT M01/M05 A299 RMK A01 T10141046  RH  079%=      5-min Rain = 0
KHA2 220705Z 10007KT M01/M05 A299 RMK A01 T10141046  RH  079%=      5-min Rain = 0
KHA2 220706Z 10008KT M02/M05 A299 RMK A01 T10151047  RH  079%=      5-min Rain = 0
KHA2 220707Z 10008KT M02/M05 A299 RMK A01 T10151047  RH  079%=      5-min Rain = 0
KHA2 220708Z 10007KT M02/M05 A299 RMK A01 T10151047  RH  079%=      5-min Rain = 0
KHA2 220709Z 10007KT M02/M05 A2991 RMK A01 T10151047  RH  079%=      5-min Rain = 0
KHA2 220710Z 10007KT M02/M05 A2991 RMK A01 T10161049  RH  078%=      5-min Rain = 0
KHA2 220711Z 10008KT M02/M05 A2991 RMK A01 T10171050  RH  078%=      5-min Rain = 0
KHA2 220712Z 10008KT M02/M05 A2991 RMK A01 T10181051  RH  078%=      5-min Rain = 0
KHA2 220713Z 10007KT M02/M05 A2991 RMK A01 T10181050  RH  079%=      5-min Rain = 0
KHA2 220714Z 10007KT M02/M05 A2991 RMK A01 T10191050  RH  079%=      5-min Rain = 0
KHA2 220715Z 10007KT M02/M05 A2991 RMK A01 T10191051  RH  079%=      5-min Rain = 0
KHA2 220716Z 10007KT M02/M05 A2991 RMK A01 T10201052  RH  079%=      5-min Rain = 0
KHA2 220717Z 10007KT M02/M05 A2991 RMK A01 T10221054  RH  079%=      5-min Rain = 0
KHA2 220718Z 11007KT M02/M05 A2991 RMK A01 T10221054  RH  079%=      5-min Rain = 0
KHA2 220719Z 11007KT M02/M05 A2991 RMK A01 T10231054  RH  079%=      5-min Rain = 0
KHA2 220720Z 11008KT M02/M06 A2991 RMK A01 T10241055  RH  079%=      5-min Rain = 0
KHA2 220721Z 11008KT M03/M06 A2991 RMK A01 T10251056  RH  080%=      5-min Rain = 0
KHA2 220722Z 11008KT M03/M06 A2991 RMK A01 T10251055  RH  080%=      5-min Rain = 0
KHA2 220723Z 11007KT M03/M06 A2991 RMK A01 T10261055  RH  080%=      5-min Rain = 0
KHA2 220724Z 11007KT M03/M06 A2991 RMK A01 T10261055  RH  080%=      5-min Rain = 0
KHA2 220725Z 11007KT M03/M06 A2991 RMK A01 T10261055  RH  080%=      5-min Rain = 0
KHA2 220726Z 11007KT M03/M06 A2991 RMK A01 T10261055  RH  080%=      5-min Rain = 0
KHA2 220727Z 11007KT M03/M05 A2991 RMK A01 T10261054  RH  081%=      5-min Rain = 0
KHA2 220728Z 11006KT M03/M05 A2991 RMK A01 T10251054  RH  081%=      5-min Rain = 0
KHA2 220729Z 10007KT M03/M05 A2991 RMK A01 T10251053  RH  081%=      5-min Rain = 0
KHA2 220730Z 10006KT M02/M05 A2991 RMK A01 T10241052  RH  081%=      5-min Rain = 0
KHA2 220731Z 09006KT M02/M05 A2991 RMK A01 T10231051  RH  082%=      5-min Rain = 0
KHA2 220732Z 09006KT M02/M05 A2991 RMK A01 T10231050  RH  082%=      5-min Rain = 0
KHA2 220733Z 09006KT M02/M05 A2991 RMK A01 T10221050  RH  081%=      5-min Rain = 0
KHA2 220734Z 08006KT M02/M05 A2991 RMK A01 T10221050  RH  081%=      5-min Rain = 0
KHA2 220735Z 08006KT M02/M05 A2991 RMK A01 T10221050  RH  081%=      5-min Rain = 0
KHA2 220736Z 08006KT M02/M05 A2991 RMK A01 T10221050  RH  081%=      5-min Rain = 0
KHA2 220737Z 08006KT M02/M05 A2991 RMK A01 T10231051  RH  081%=      5-min Rain = 0
KHA2 220738Z 08005KT M02/M05 A2991 RMK A01 T10231051  RH  081%=      5-min Rain = 0
KHA2 220739Z 07005KT M02/M05 A2991 RMK A01 T10231051  RH  081%=      5-min Rain = 0
KHA2 220740Z 07004KT M02/M05 A2992 RMK A01 T10241053  RH  081%=      5-min Rain = 0
KHA2 220741Z 07004KT M03/M06 A2992 RMK A01 T10261055  RH  080%=      5-min Rain = 0
KHA2 220742Z 06004KT M03/M06 A2992 RMK A01 T10271057  RH  080%=      5-min Rain = 0
KHA2 220743Z 06004KT M03/M06 A2992 RMK A01 T10281057  RH  081%=      5-min Rain = 0
KHA2 220744Z 06004KT M03/M06 A2992 RMK A01 T10301057  RH  081%=      5-min Rain = 0
KHA2 220745Z 07004KT M03/M06 A2992 RMK A01 T10301057  RH  082%=      5-min Rain = 0
KHA2 220746Z 07004KT M03/M06 A2992 RMK A01 T10311057  RH  082%=      5-min Rain = 0
KHA2 220747Z 07004KT M03/M06 A2992 RMK A01 T10311057  RH  082%=      5-min Rain = 0
KHA2 220748Z 07005KT M03/M06 A2992 RMK A01 T10311056  RH  083%=      5-min Rain = 0
KHA2 220749Z 07005KT M03/M06 A2992 RMK A01 T10311056  RH  083%=      5-min Rain = 0
KHA2 220750Z 07005KT M03/M06 A2992 RMK A01 T10311056  RH  083%=      5-min Rain = 0
KHA2 220751Z 08005KT M03/M06 A2992 RMK A01 T10311056  RH  083%=      5-min Rain = 0
KHA2 220752Z 08006KT M03/M06 A2992 RMK A01 T10311056  RH  083%=      5-min Rain = 0
KHA2 220753Z 08005KT M03/M06 A2992 RMK A01 T10311055  RH  083%=      5-min Rain = 0
KHA2 220754Z 08006KT M03/M05 A2992 RMK A01 T10311053  RH  085%=      5-min Rain = 0
KHA2 220755Z 08006KT M03/M05 A2992 RMK A01 T10291050  RH  085%=      5-min Rain = 0
KHA2 220756Z 08006KT M03/M05 A2992 RMK A01 T10281049  RH  085%=      5-min Rain = 0
KHA2 220757Z 07006KT M03/M05 A2992 RMK A01 T10281051  RH  084%=      5-min Rain = 0
KHA2 220758Z 07006KT M03/M05 A2992 RMK A01 T10291053  RH  084%=      5-min Rain = 0
KHA2 220759Z 07006KT M03/M06 A2992 RMK A01 T10301055  RH  083%=      5-min Rain = 0
KHA2 220800Z 07006KT M03/M06 A2992 RMK A01 T10311056  RH  083%=      5-min Rain = 0
KHA2 220801Z 07006KT M03/M06 A2992 RMK A01 T10321057  RH  083%=      5-min Rain = 0
KHA2 220802Z 07006KT M03/M06 A2992 RMK A01 T10331056  RH  084%=      5-min Rain = 0
KHA2 220803Z 07006KT M03/M06 A2992 RMK A01 T10331056  RH  084%=      5-min Rain = 0
KHA2 220804Z 07006KT M03/M06 A2992 RMK A01 T10341056  RH  084%=      5-min Rain = 0
KHA2 220805Z 07006KT M03/M06 A2992 RMK A01 T10341057  RH  084%=      5-min Rain = 0
KHA2 220806Z 07006KT M04/M06 A2992 RMK A01 T10351057  RH  085%=      5-min Rain = 0
KHA2 220807Z 07007KT M04/M06 A2992 RMK A01 T10351058  RH  084%=      5-min Rain = 0
KHA2 220808Z 08006KT M04/M06 A2992 RMK A01 T10351058  RH  084%=      5-min Rain = 0
KHA2 220809Z 07006KT M04/M06 A2992 RMK A01 T10361059  RH  084%=      5-min Rain = 0
KHA2 220810Z 07006KT M04/M06 A2992 RMK A01 T10371059  RH  085%=      5-min Rain = 0
KHA2 220811Z 07006KT M04/M06 A2992 RMK A01 T10371058  RH  085%=      5-min Rain = 0
KHA2 220812Z 07006KT M04/M06 A2992 RMK A01 T10371057  RH  086%=      5-min Rain = 0
KHA2 220813Z 07006KT M04/M06 A2992 RMK A01 T10371057  RH  086%=      5-min Rain = 0
KHA2 220814Z 07006KT M04/M06 A2992 RMK A01 T10371057  RH  086%=      5-min Rain = 0
KHA2 220815Z 07006KT M04/M06 A2992 RMK A01 T10371057  RH  086%=      5-min Rain = 0
KHA2 220816Z 07006KT M04/M06 A2992 RMK A01 T10381058  RH  086%=      5-min Rain = 0
KHA2 220817Z 07006KT M04/M06 A2993 RMK A01 T10381058  RH  086%=      5-min Rain = 0
KHA2 220818Z 07006KT M04/M06 A2993 RMK A01 T10391058  RH  086%=      5-min Rain = 0
KHA2 220819Z 07006KT M04/M06 A2993 RMK A01 T10391059  RH  086%=      5-min Rain = 0
KHA2 220820Z 07006KT M04/M06 A2993 RMK A01 T10401058  RH  087%=      5-min Rain = 0
KHA2 220821Z 07006KT M04/M06 A2993 RMK A01 T10401058  RH  087%=      5-min Rain = 0
KHA2 220822Z 07005KT M04/M06 A2993 RMK A01 T10401058  RH  087%=      5-min Rain = 0
KHA2 220823Z 07006KT M04/M06 A2993 RMK A01 T10401058  RH  087%=      5-min Rain = 0
KHA2 220824Z 07006KT M04/M06 A2993 RMK A01 T10401058  RH  087%=      5-min Rain = 0
KHA2 220825Z 07006KT M04/M06 A2993 RMK A01 T10401058  RH  088%=      5-min Rain = 0
KHA2 220826Z 07006KT M04/M06 A2993 RMK A01 T10401058  RH  088%=      5-min Rain = 0
KHA2 220827Z 07005KT M04/M06 A2993 RMK A01 T10411057  RH  088%=      5-min Rain = 0
KHA2 220828Z 08004KT M04/M06 A2993 RMK A01 T10401056  RH  088%=      5-min Rain = 0
KHA2 220829Z 09003KT M04/M06 A2994 RMK A01 T10401056  RH  088%=      5-min Rain = 0
KHA2 220830Z 09002KT M04/M06 A2994 RMK A01 T10391055  RH  089%=      5-min Rain = 0
KHA2 220831Z 08002KT M04/M06 A2995 RMK A01 T10391055  RH  089%=      5-min Rain = 0
KHA2 220832Z 08001KT M04/M05 A2995 RMK A01 T10381054  RH  089%=      5-min Rain = 0
KHA2 220833Z 06001KT M04/M05 A2995 RMK A01 T10381054  RH  089%=      5-min Rain = 0
KHA2 220834Z 06001KT M04/M05 A2995 RMK A01 T10371054  RH  088%=      5-min Rain = 0
KHA2 220835Z 08001KT M04/M06 A2995 RMK A01 T10371056  RH  087%=      5-min Rain = 0
KHA2 220836Z 06002KT M04/M06 A2995 RMK A01 T10371056  RH  087%=      5-min Rain = 0
KHA2 220837Z 08003KT M04/M06 A2995 RMK A01 T10361055  RH  087%=      5-min Rain = 0
KHA2 220838Z 09004KT M04/M05 A2995 RMK A01 T10351053  RH  087%=      5-min Rain = 0
KHA2 220839Z 09005KT M03/M05 A2994 RMK A01 T10331049  RH  088%=      5-min Rain = 0
KHA2 220840Z 08007KT M03/M04 A2994 RMK A01 T10301043  RH  090%=      5-min Rain = 0
KHA2 220841Z 08008KT M03/M04 A2993 RMK A01 T10261039  RH  091%=      5-min Rain = 0
KHA2 220842Z 08009KT M03/M04 A2993 RMK A01 T10251040  RH  090%=      5-min Rain = 0
KHA2 220843Z 08011KT M02/M04 A2992 RMK A01 T10241040  RH  089%=      5-min Rain = 0
KHA2 220844Z 08010KT M02/M04 A2992 RMK A01 T10241040  RH  089%=      5-min Rain = 0
KHA2 220845Z 08009KT M02/M04 A2992 RMK A01 T10241041  RH  088%=      5-min Rain = 0
KHA2 220846Z 08009KT M03/M04 A2992 RMK A01 T10261044  RH  087%=      5-min Rain = 0
KHA2 220847Z 08009KT M03/M05 A2992 RMK A01 T10271046  RH  087%=      5-min Rain = 0
KHA2 220848Z 08010KT M03/M05 A2992 RMK A01 T10271046  RH  087%=      5-min Rain = 0
KHA2 220849Z 09011KT M03/M05 A2991 RMK A01 T10281046  RH  087%=      5-min Rain = 0
KHA2 220850Z 09011KT M03/M04 A2991 RMK A01 T10281044  RH  088%=      5-min Rain = 0
KHA2 220851Z 09012KT M03/M04 A2991 RMK A01 T10271043  RH  089%=      5-min Rain = 0
KHA2 220852Z 09012KT M03/M04 A2991 RMK A01 T10271043  RH  089%=      5-min Rain = 0
KHA2 220853Z 08012KT M03/M04 A2991 RMK A01 T10271043  RH  089%=      5-min Rain = 0
KHA2 220854Z 09011KT M03/M04 A2991 RMK A01 T10271043  RH  089%=      5-min Rain = 0
KHA2 220855Z 09011KT M03/M04 A2991 RMK A01 T10271042  RH  089%=      5-min Rain = 0
KHA2 220856Z 09010KT M03/M04 A2991 RMK A01 T10261041  RH  089%=      5-min Rain = 0
KHA2 220857Z 09010KT M03/M04 A2991 RMK A01 T10261040  RH  090%=      5-min Rain = 0
KHA2 220858Z 09010KT M03/M04 A2991 RMK A01 T10251039  RH  090%=      5-min Rain = 0
KHA2 220859Z 09009KT M02/M04 A2991 RMK A01 T10241038  RH  090%=      5-min Rain = 0
KHA2 220900Z 09010KT M02/M04 A2991 RMK A01 T10231036  RH  090%=      5-min Rain = 0
KHA2 220901Z 09010KT M02/M04 A2991 RMK A01 T10221036  RH  091%=      5-min Rain = 0
KHA2 220902Z 09010KT M02/M03 A2991 RMK A01 T10211034  RH  091%=      5-min Rain = 0
KHA2 220903Z 09010KT M02/M03 A2991 RMK A01 T10201033  RH  091%=      5-min Rain = 0
KHA2 220904Z 09009KT M02/M03 A2991 RMK A01 T10201033  RH  091%=      5-min Rain = 0
KHA2 220905Z 09009KT M02/M03 A2991 RMK A01 T10191033  RH  091%=      5-min Rain = 0
KHA2 220906Z 09009KT M02/M03 A2991 RMK A01 T10191033  RH  090%=      5-min Rain = 0
KHA2 220907Z 09009KT M02/M03 A2991 RMK A01 T10191033  RH  090%=      5-min Rain = 0
KHA2 220908Z 09008KT M02/M03 A2991 RMK A01 T10191034  RH  090%=      5-min Rain = 0
KHA2 220909Z 09008KT M02/M03 A2991 RMK A01 T10191034  RH  090%=      5-min Rain = 0
KHA2 220910Z 10009KT M02/M04 A2992 RMK A01 T10201035  RH  090%=      5-min Rain = 0
KHA2 220911Z 10009KT M02/M04 A2992 RMK A01 T10201035  RH  090%=      5-min Rain = 0
KHA2 220912Z 10009KT M02/M03 A2992 RMK A01 T10201034  RH  090%=      5-min Rain = 0
KHA2 220913Z 10010KT M02/M03 A2992 RMK A01 T10211034  RH  091%=      5-min Rain = 0
KHA2 220914Z 10010KT M02/M03 A2992 RMK A01 T10211034  RH  091%=      5-min Rain = 0
KHA2 220915Z 10009KT M02/M03 A2992 RMK A01 T10211034  RH  091%=      5-min Rain = 0
KHA2 220916Z 10009KT M02/M03 A2992 RMK A01 T10211033  RH  091%=      5-min Rain = 0
KHA2 220917Z 10011KT M02/M03 A2992 RMK A01 T10211033  RH  091%=      5-min Rain = 0
KHA2 220918Z 10010KT M02/M03 A2992 RMK A01 T10211033  RH  091%=      5-min Rain = 0
KHA2 220919Z 10011KT M02/M03 A2992 RMK A01 T10211033  RH  091%=      5-min Rain = 0
KHA2 220920Z 10010KT M02/M03 A2991 RMK A01 T10201032  RH  092%=      5-min Rain = 0
KHA2 220921Z 10011KT M02/M03 A2991 RMK A01 T10201032  RH  092%=      5-min Rain = 0
KHA2 220922Z 10011KT M02/M03 A2991 RMK A01 T10201031  RH  092%=      5-min Rain = 0
KHA2 220923Z 10011KT M02/M03 A2992 RMK A01 T10201031  RH  092%=      5-min Rain = 0
KHA2 220924Z 10010KT M02/M03 A2992 RMK A01 T10201031  RH  092%=      5-min Rain = 0
KHA2 220925Z 10009KT M02/M03 A2992 RMK A01 T10201031  RH  092%=      5-min Rain = 0
KHA2 220926Z 10009KT M02/M03 A2992 RMK A01 T10201031  RH  092%=      5-min Rain = 0
KHA2 220927Z 10009KT M02/M03 A2992 RMK A01 T10201030  RH  093%=      5-min Rain = 0
KHA2 220928Z 10008KT M02/M03 A2992 RMK A01 T10201030  RH  093%=      5-min Rain = 0
KHA2 220929Z 09008KT M02/M03 A2992 RMK A01 T10201029  RH  093%=      5-min Rain = 0
KHA2 220930Z 09008KT M02/M03 A2992 RMK A01 T10201029  RH  093%=      5-min Rain = 0
KHA2 220931Z 09008KT M02/M03 A2993 RMK A01 T10201029  RH  094%=      5-min Rain = 0
KHA2 220932Z 09007KT M02/M03 A2993 RMK A01 T10201029  RH  094%=      5-min Rain = 0
KHA2 220933Z 09006KT M02/M03 A2993 RMK A01 T10201029  RH  094%=      5-min Rain = 0
KHA2 220934Z 09006KT M02/M03 A2993 RMK A01 T10211029  RH  094%=      5-min Rain = 0
KHA2 220935Z 09006KT M02/M03 A2993 RMK A01 T10211029  RH  094%=      5-min Rain = 0
KHA2 220936Z 09006KT M02/M03 A2993 RMK A01 T10211030  RH  094%=      5-min Rain = 0
KHA2 220937Z 09006KT M02/M03 A2993 RMK A01 T10221030  RH  094%=      5-min Rain = 0
KHA2 220938Z 09006KT M02/M03 A2993 RMK A01 T10221030  RH  094%=      5-min Rain = 0
KHA2 220939Z 08006KT M02/M03 A2993 RMK A01 T10221030  RH  094%=      5-min Rain = 0
KHA2 220940Z 08006KT M02/M03 A2993 RMK A01 T10221030  RH  094%=      5-min Rain = 0
KHA2 220941Z 08006KT M02/M03 A2992 RMK A01 T10231030  RH  094%=      5-min Rain = 0
KHA2 220942Z 08006KT M02/M03 A2992 RMK A01 T10231031  RH  095%=      5-min Rain = 0
KHA2 220943Z 08006KT M02/M03 A2992 RMK A01 T10231031  RH  095%=      5-min Rain = 0
KHA2 220944Z 08006KT M02/M03 A2992 RMK A01 T10241032  RH  095%=      5-min Rain = 0
KHA2 220945Z 08006KT M02/M03 A2992 RMK A01 T10241032  RH  095%=      5-min Rain = 0
KHA2 220946Z 08006KT M02/M03 A2992 RMK A01 T10241031  RH  095%=      5-min Rain = 0
KHA2 220947Z 08006KT M02/M03 A2992 RMK A01 T10241031  RH  095%=      5-min Rain = 0
KHA2 220948Z 08007KT M02/M03 A2992 RMK A01 T10241031  RH  095%=      5-min Rain = 0
KHA2 220949Z 08007KT M02/M03 A2992 RMK A01 T10241031  RH  095%=      5-min Rain = 0
KHA2 220950Z 08006KT M02/M03 A2992 RMK A01 T10241031  RH  095%=      5-min Rain = 0
KHA2 220951Z 08007KT M03/M03 A2992 RMK A01 T10251031  RH  095%=      5-min Rain = 0
KHA2 220952Z 08006KT M03/M03 A2992 RMK A01 T10251031  RH  095%=      5-min Rain = 0
KHA2 220953Z 08006KT M03/M03 A2992 RMK A01 T10251031  RH  095%=      5-min Rain = 0
KHA2 220954Z 08007KT M03/M03 A2992 RMK A01 T10251031  RH  096%=      5-min Rain = 0
KHA2 220955Z 08007KT M03/M03 A2992 RMK A01 T10251031  RH  096%=      5-min Rain = 0
KHA2 220956Z 09007KT M02/M03 A2992 RMK A01 T10241030  RH  096%=      5-min Rain = 0
KHA2 220957Z 09006KT M02/M03 A2992 RMK A01 T10231028  RH  096%=      5-min Rain = 0
KHA2 220958Z 10007KT M02/M03 A2992 RMK A01 T10221027  RH  096%=      5-min Rain = 0
KHA2 220959Z 10008KT M02/M03 A2992 RMK A01 T10211027  RH  096%=      5-min Rain = 0
KHA2 221000Z 10009KT M02/M03 A2992 RMK A01 T10201025  RH  096%=      5-min Rain = 0
KHA2 221001Z 11008KT M02/M02 A2992 RMK A01 T10181023  RH  097%=      5-min Rain = 0
KHA2 221002Z 11008KT M02/M02 A2992 RMK A01 T10171022  RH  096%=      5-min Rain = 0
KHA2 221003Z 11008KT M02/M02 A2992 RMK A01 T10171022  RH  096%=      5-min Rain = 0
KHA2 221004Z 11008KT M02/M02 A2992 RMK A01 T10161022  RH  096%=      5-min Rain = 0
KHA2 221005Z 10008KT M02/M02 A2991 RMK A01 T10161022  RH  096%=      5-min Rain = 0
KHA2 221006Z 10009KT M02/M02 A2991 RMK A01 T10151021  RH  096%=      5-min Rain = 0
KHA2 221007Z 11009KT M01/M02 A2991 RMK A01 T10141020  RH  096%=      5-min Rain = 0
KHA2 221008Z 11008KT M01/M02 A2991 RMK A01 T10141020  RH  096%=      5-min Rain = 0
KHA2 221009Z 11009KT M01/M02 A2991 RMK A01 T10141020  RH  095%=      5-min Rain = 0
KHA2 221010Z 11009KT M01/M02 A2991 RMK A01 T10131019  RH  095%=      5-min Rain = 0
KHA2 221011Z 11008KT M01/M02 A2991 RMK A01 T10131020  RH  095%=      5-min Rain = 0
KHA2 221012Z 11008KT M01/M02 A2991 RMK A01 T10131019  RH  095%=      5-min Rain = 0
KHA2 221013Z 12009KT M01/M02 A2991 RMK A01 T10121019  RH  095%=      5-min Rain = 0
KHA2 221014Z 11008KT M01/M02 A2991 RMK A01 T10121018  RH  096%=      5-min Rain = 0
KHA2 221015Z 11008KT M01/M02 A2991 RMK A01 T10121018  RH  096%=      5-min Rain = 0
KHA2 221016Z 11007KT M01/M02 A2991 RMK A01 T10121018  RH  096%=      5-min Rain = 0
KHA2 221017Z 11007KT M01/M02 A2991 RMK A01 T10121018  RH  096%=      5-min Rain = 0
KHA2 221018Z 11008KT M01/M02 A2991 RMK A01 T10111018  RH  096%=      5-min Rain = 0
KHA2 221019Z 11008KT M01/M02 A2991 RMK A01 T10111017  RH  096%=      5-min Rain = 0
KHA2 221020Z 11007KT M01/M02 A2991 RMK A01 T10101017  RH  096%=      5-min Rain = 0
KHA2 221021Z 11008KT M01/M02 A2991 RMK A01 T10101016  RH  096%=      5-min Rain = 0
KHA2 221022Z 12008KT M01/M02 A2991 RMK A01 T10101016  RH  096%=      5-min Rain = 0
KHA2 221023Z 11009KT M01/M02 A2991 RMK A01 T10091015  RH  096%=      5-min Rain = 0
KHA2 221024Z 11009KT M01/M02 A2991 RMK A01 T10091015  RH  096%=      5-min Rain = 0
KHA2 221025Z 12009KT M01/M01 A2991 RMK A01 T10091014  RH  096%=      5-min Rain = 0
KHA2 221026Z 12008KT M01/M01 A2991 RMK A01 T10081014  RH  096%=      5-min Rain = 0
KHA2 221027Z 12009KT M01/M01 A2991 RMK A01 T10091014  RH  096%=      5-min Rain = 0
KHA2 221028Z 12010KT M01/M01 A2991 RMK A01 T10081013  RH  096%=      5-min Rain = 0
KHA2 221029Z 11009KT M01/M01 A2991 RMK A01 T10081013  RH  096%=      5-min Rain = 0
KHA2 221030Z 12009KT M01/M01 A2991 RMK A01 T10081013  RH  096%=      5-min Rain = 0
KHA2 221031Z 12010KT M01/M01 A2991 RMK A01 T10081013  RH  096%=      5-min Rain = 0
KHA2 221032Z 12009KT M01/M01 A2991 RMK A01 T10081013  RH  096%=      5-min Rain = 0
KHA2 221033Z 12008KT M01/M01 A2991 RMK A01 T10081013  RH  096%=      5-min Rain = 0
KHA2 221034Z 11009KT M01/M01 A2991 RMK A01 T10081013  RH  096%=      5-min Rain = 0
KHA2 221035Z 12008KT M01/M01 A2991 RMK A01 T10081013  RH  096%=      5-min Rain = 0
KHA2 221036Z 12008KT M01/M01 A2991 RMK A01 T10081013  RH  096%=      5-min Rain = 0
KHA2 221037Z 12008KT M01/M01 A2991 RMK A01 T10081013  RH  096%=      5-min Rain = 0
KHA2 221038Z 12009KT M01/M01 A2991 RMK A01 T10081013  RH  096%=      5-min Rain = 0
KHA2 221039Z 12009KT M01/M01 A2991 RMK A01 T10071013  RH  096%=      5-min Rain = 0
KHA2 221040Z 12009KT M01/M01 A2991 RMK A01 T10071012  RH  096%=      5-min Rain = 0
KHA2 221041Z 12008KT M01/M01 A2991 RMK A01 T10061012  RH  096%=      5-min Rain = 0
KHA2 221042Z 12009KT M01/M01 A2991 RMK A01 T10061011  RH  096%=      5-min Rain = 0
KHA2 221043Z 12008KT M01/M01 A2991 RMK A01 T10061011  RH  096%=      5-min Rain = 0
KHA2 221044Z 12011KT M01/M01 A2991 RMK A01 T10051010  RH  097%=      5-min Rain = 0
KHA2 221045Z 12010KT M01/M01 A2991 RMK A01 T10051010  RH  097%=      5-min Rain = 0
KHA2 221046Z 12010KT M00/M01 A299 RMK A01 T10041009  RH  097%=      5-min Rain = 0
KHA2 221047Z 12010KT M00/M01 A299 RMK A01 T10041009  RH  097%=      5-min Rain = 0
KHA2 221048Z 12010KT M00/M01 A299 RMK A01 T10041008  RH  097%=      5-min Rain = 0
KHA2 221049Z 12010KT M00/M01 A299 RMK A01 T10041008  RH  097%=      5-min Rain = 0
KHA2 221050Z 12009KT M00/M01 A2991 RMK A01 T10031008  RH  097%=      5-min Rain = 0
KHA2 221051Z 12010KT M00/M01 A2991 RMK A01 T10031007  RH  097%=      5-min Rain = 0
KHA2 221052Z 12010KT M00/M01 A2991 RMK A01 T10031007  RH  097%=      5-min Rain = 0
KHA2 221053Z 12012KT M00/M01 A2991 RMK A01 T10031007  RH  097%=      5-min Rain = 0
KHA2 221054Z 12010KT M00/M01 A2991 RMK A01 T10021006  RH  097%=      5-min Rain = 0
KHA2 221055Z 12008KT M00/M01 A2991 RMK A01 T10021006  RH  097%=      5-min Rain = 0
KHA2 221056Z 12008KT M00/M01 A299 RMK A01 T10021006  RH  097%=      5-min Rain = 0
KHA2 221057Z 12010KT M00/M01 A299 RMK A01 T10021006  RH  097%=      5-min Rain = 0
KHA2 221058Z 12011KT M00/M01 A299 RMK A01 T10021005  RH  097%=      5-min Rain = 0
KHA2 221059Z 13010KT M00/M01 A299 RMK A01 T10011005  RH  098%=      5-min Rain = 0
KHA2 221100Z 13011KT M00/M00 A299 RMK A01 T10011004  RH  098%=      5-min Rain = 0
KHA2 221101Z 13010KT M00/M01 A299 RMK A01 T10011005  RH  098%=      5-min Rain = 0
KHA2 221102Z 13008KT M00/M01 A299 RMK A01 T10011005  RH  098%=      5-min Rain = 0
KHA2 221103Z 13009KT M00/M00 A299 RMK A01 T10011004  RH  098%=      5-min Rain = 0
KHA2 221104Z 13009KT M00/M00 A299 RMK A01 T10011004  RH  098%=      5-min Rain = 0
KHA2 221105Z 12010KT M00/M00 A299 RMK A01 T10011004  RH  098%=      5-min Rain = 0
KHA2 221106Z 12012KT 00/00 A299 RMK A01 T00-000-4  RH  098%=      5-min Rain = 0
KHA2 221107Z 13011KT 00/00 A299 RMK A01 T000000-3  RH  098%=      5-min Rain = 0
KHA2 221108Z 12012KT 00/00 A299 RMK A01 T000000-3  RH  098%=      5-min Rain = 0
KHA2 221109Z 12011KT 00/M00 A299 RMK A01 T00011002  RH  098%=      5-min Rain = 0
KHA2 221110Z 12010KT 00/00 A299 RMK A01 T000000-3  RH  098%=      5-min Rain = 0
KHA2 221111Z 12011KT 00/00 A299 RMK A01 T000000-3  RH  098%=      5-min Rain = 0
KHA2 221112Z 13010KT 00/M00 A299 RMK A01 T00011002  RH  098%=      5-min Rain = 0
KHA2 221113Z 12012KT 00/00 A299 RMK A01 T000000-2  RH  098%=      5-min Rain = 0
KHA2 221114Z 12011KT 00/M00 A299 RMK A01 T00011002  RH  098%=      5-min Rain = 0
KHA2 221115Z 12010KT 00/M00 A299 RMK A01 T00011002  RH  098%=      5-min Rain = 0
KHA2 221116Z 12011KT 00/M00 A299 RMK A01 T00011002  RH  098%=      5-min Rain = 0
KHA2 221117Z 12012KT 00/M00 A299 RMK A01 T00011002  RH  098%=      5-min Rain = 0
KHA2 221118Z 12011KT 00/M00 A299 RMK A01 T00011002  RH  098%=      5-min Rain = 0
KHA2 221119Z 12012KT 00/M00 A299 RMK A01 T00011002  RH  098%=      5-min Rain = 0
KHA2 221120Z 12011KT 00/M00 A299 RMK A01 T00021001  RH  098%=      5-min Rain = 0
KHA2 221121Z 12010KT 00/M00 A299 RMK A01 T00021001  RH  098%=      5-min Rain = 0
KHA2 221122Z 12012KT 00/M00 A299 RMK A01 T00021001  RH  098%=      5-min Rain = 0
KHA2 221123Z 12012KT 00/M00 A299 RMK A01 T00021001  RH  098%=      5-min Rain = 0
KHA2 221124Z 12011KT 00/M00 A299 RMK A01 T00021001  RH  098%=      5-min Rain = 0
KHA2 221125Z 12010KT 00/M00 A299 RMK A01 T00021001  RH  098%=      5-min Rain = 0
KHA2 221126Z 11010KT 00/M00 A299 RMK A01 T00021001  RH  098%=      5-min Rain = 0
KHA2 221127Z 11009KT 00/M00 A299 RMK A01 T00021001  RH  098%=      5-min Rain = 0
KHA2 221128Z 11010KT 00/M00 A299 RMK A01 T00021001  RH  098%=      5-min Rain = 0
KHA2 221129Z 11010KT 00/M00 A299 RMK A01 T00021001  RH  098%=      5-min Rain = 0
KHA2 221130Z 11010KT 00/M00 A299 RMK A01 T00021001  RH  098%=      5-min Rain = 0
KHA2 221131Z 11011KT 00/M00 A299 RMK A01 T00011002  RH  098%=      5-min Rain = 0
KHA2 221132Z 11010KT 00/M00 A299 RMK A01 T00011002  RH  098%=      5-min Rain = 0
KHA2 221133Z 11011KT 00/M00 A299 RMK A01 T00011002  RH  098%=      5-min Rain = 0
KHA2 221134Z 11010KT 00/M00 A299 RMK A01 T00021002  RH  098%=      5-min Rain = 0
KHA2 221135Z 11010KT 00/M00 A299 RMK A01 T00011002  RH  097%=      5-min Rain = 0
KHA2 221136Z 11011KT 00/M00 A299 RMK A01 T00011002  RH  097%=      5-min Rain = 0
KHA2 221137Z 11010KT 00/M00 A299 RMK A01 T00011003  RH  097%=      5-min Rain = 0
KHA2 221138Z 11010KT 00/M00 A299 RMK A01 T00011003  RH  097%=      5-min Rain = 0
KHA2 221139Z 11012KT 00/M00 A299 RMK A01 T00011003  RH  097%=      5-min Rain = 0
KHA2 221140Z 11011KT 00/M00 A299 RMK A01 T00011003  RH  097%=      5-min Rain = 0
KHA2 221141Z 11010KT 00/M00 A299 RMK A01 T00011003  RH  097%=      5-min Rain = 0
KHA2 221142Z 11012KT 00/M00 A299 RMK A01 T00011003  RH  097%=      5-min Rain = 0
KHA2 221143Z 11011KT 00/00 A299 RMK A01 T000000-3  RH  097%=      5-min Rain = 0
KHA2 221144Z 11011KT 00/00 A299 RMK A01 T000000-3  RH  098%=      5-min Rain = 0
KHA2 221145Z 11011KT 00/00 A299 RMK A01 T000000-3  RH  098%=      5-min Rain = 0
KHA2 221146Z 11010KT 00/00 A299 RMK A01 T000000-3  RH  098%=      5-min Rain = 0
KHA2 221147Z 11011KT 00/00 A299 RMK A01 T000000-3  RH  098%=      5-min Rain = 0
KHA2 221148Z 12011KT 00/00 A299 RMK A01 T000000-3  RH  098%=      5-min Rain = 0
KHA2 221149Z 11011KT 00/00 A299 RMK A01 T000000-3  RH  098%=      5-min Rain = 0
KHA2 221150Z 11011KT 00/00 A299 RMK A01 T00-000-3  RH  098%=      5-min Rain = 0
KHA2 221151Z 11012KT 00/00 A299 RMK A01 T00-000-3  RH  098%=      5-min Rain = 0
KHA2 221152Z 12011KT 00/00 A299 RMK A01 T00-000-3  RH  098%=      5-min Rain = 0
KHA2 221153Z 11011KT 00/00 A299 RMK A01 T00-000-3  RH  098%=      5-min Rain = 0
KHA2 221154Z 12009KT 00/00 A299 RMK A01 T00-000-3  RH  098%=      5-min Rain = 0
KHA2 221155Z 12010KT M00/M00 A299 RMK A01 T10011003  RH  098%=      5-min Rain = 0
KHA2 221156Z 12012KT M00/M00 A299 RMK A01 T10011003  RH  098%=      5-min Rain = 0
KHA2 221157Z 12011KT M00/M00 A299 RMK A01 T10011003  RH  098%=      5-min Rain = 0
KHA2 221158Z 12011KT M00/M00 A299 RMK A01 T10011003  RH  098%=      5-min Rain = 0
KHA2 221159Z 11009KT M00/M00 A299 RMK A01 T10011003  RH  098%=      5-min Rain = 0
KHA2 221200Z 12008KT M00/M00 A299 RMK A01 T10011003  RH  098%=      5-min Rain = 0
KHA2 221201Z 12007KT M00/M00 A299 RMK A01 T10011003  RH  098%=      5-min Rain = 0
KHA2 221202Z 12008KT M00/M00 A299 RMK A01 T10011003  RH  098%=      5-min Rain = 0
KHA2 221203Z 12007KT M00/M00 A299 RMK A01 T10011003  RH  098%=      5-min Rain = 0
KHA2 221204Z 12009KT M00/M00 A299 RMK A01 T10011003  RH  098%=      5-min Rain = 0
KHA2 221205Z 12008KT M00/M00 A299 RMK A01 T10011003  RH  098%=      5-min Rain = 0
KHA2 221206Z 12009KT M00/M00 A299 RMK A01 T10011003  RH  098%=      5-min Rain = 0
KHA2 221207Z 12009KT M00/M00 A299 RMK A01 T10011003  RH  098%=      5-min Rain = 0
KHA2 221208Z 12009KT M00/M00 A299 RMK A01 T10011003  RH  099%=      5-min Rain = 0
KHA2 221209Z 12008KT M00/M00 A299 RMK A01 T10011003  RH  099%=      5-min Rain = 0
KHA2 221210Z 12007KT M00/M00 A299 RMK A01 T10011003  RH  099%=      5-min Rain = 0
KHA2 221211Z 12009KT M00/M00 A299 RMK A01 T10011003  RH  099%=      5-min Rain = 0
KHA2 221212Z 13009KT M00/M00 A299 RMK A01 T10011003  RH  099%=      5-min Rain = 0
KHA2 221213Z 13008KT M00/M00 A299 RMK A01 T10011003  RH  099%=      5-min Rain = 0
KHA2 221214Z 12008KT M00/M00 A299 RMK A01 T10011003  RH  099%=      5-min Rain = 0
KHA2 221215Z 11008KT M00/M00 A299 RMK A01 T10011003  RH  099%=      5-min Rain = 0
KHA2 221216Z 12009KT M00/M00 A299 RMK A01 T10011003  RH  099%=      5-min Rain = 0
KHA2 221217Z 12008KT M00/M00 A299 RMK A01 T10011002  RH  099%=      5-min Rain = 0
KHA2 221218Z 13009KT M00/M00 A299 RMK A01 T10011003  RH  099%=      5-min Rain = 0
KHA2 221219Z 12009KT M00/M00 A2991 RMK A01 T10011002  RH  099%=      5-min Rain = 0
KHA2 221220Z 12008KT M00/M00 A2991 RMK A01 T10011003  RH  099%=      5-min Rain = 0
KHA2 221221Z 12009KT M00/M00 A2991 RMK A01 T10011003  RH  099%=      5-min Rain = 0
KHA2 221222Z 12007KT M00/M00 A2991 RMK A01 T10011003  RH  099%=      5-min Rain = 0
KHA2 221223Z 12009KT M00/M00 A2991 RMK A01 T10011002  RH  099%=      5-min Rain = 0
KHA2 221224Z 12010KT M00/M00 A2991 RMK A01 T10011002  RH  099%=      5-min Rain = 0
KHA2 221225Z 12008KT M00/M00 A2991 RMK A01 T10011002  RH  099%=      5-min Rain = 0
KHA2 221226Z 12009KT M00/M00 A2991 RMK A01 T10011002  RH  099%=      5-min Rain = 0
KHA2 221227Z 12010KT M00/M00 A2991 RMK A01 T10011002  RH  099%=      5-min Rain = 0
KHA2 221228Z 13009KT M00/M00 A2991 RMK A01 T10011002  RH  099%=      5-min Rain = 0
KHA2 221229Z 13010KT M00/M00 A2991 RMK A01 T10011002  RH  099%=      5-min Rain = 0
KHA2 221230Z 12009KT M00/M00 A2991 RMK A01 T10011002  RH  099%=      5-min Rain = 0
KHA2 221231Z 12009KT M00/M00 A2991 RMK A01 T10011002  RH  099%=      5-min Rain = 0
KHA2 221232Z 12010KT 00/00 A2991 RMK A01 T00-000-2  RH  099%=      5-min Rain = 0
KHA2 221233Z 12010KT 00/00 A2991 RMK A01 T00-000-2  RH  099%=      5-min Rain = 0
KHA2 221234Z 12011KT 00/00 A2991 RMK A01 T00-000-2  RH  099%=      5-min Rain = 0
KHA2 221235Z 12010KT M00/M00 A2991 RMK A01 T10011002  RH  099%=      5-min Rain = 0
KHA2 221236Z 12011KT M00/M00 A2991 RMK A01 T10011002  RH  099%=      5-min Rain = 0
KHA2 221237Z 12010KT 00/00 A2991 RMK A01 T00-000-2  RH  099%=      5-min Rain = 0
KHA2 221238Z 12011KT M00/M00 A2991 RMK A01 T10011002  RH  099%=      5-min Rain = 0
KHA2 221239Z 12011KT 00/00 A2991 RMK A01 T00-000-2  RH  099%=      5-min Rain = 0
KHA2 221240Z 12012KT 00/00 A2991 RMK A01 T00-000-2  RH  099%=      5-min Rain = 0
KHA2 221241Z 12010KT M00/M00 A2991 RMK A01 T10011002  RH  099%=      5-min Rain = 0
KHA2 221242Z 12010KT M00/M00 A2991 RMK A01 T10011002  RH  099%=      5-min Rain = 0
KHA2 221243Z 12011KT M00/M00 A2991 RMK A01 T10011002  RH  099%=      5-min Rain = 0
KHA2 221244Z 12009KT M00/M00 A2991 RMK A01 T10011002  RH  099%=      5-min Rain = 0
KHA2 221245Z 12009KT M00/M00 A2991 RMK A01 T10011002  RH  099%=      5-min Rain = 0
KHA2 221246Z 12011KT M00/M00 A2991 RMK A01 T10011002  RH  099%=      5-min Rain = 0
KHA2 221247Z 12011KT M00/M00 A2991 RMK A01 T10011002  RH  099%=      5-min Rain = 0
KHA2 221248Z 12011KT 00/00 A2991 RMK A01 T00-000-1  RH  099%=      5-min Rain = 0
KHA2 221249Z 12011KT M00/M00 A2991 RMK A01 T10011002  RH  099%=      5-min Rain = 0
KHA2 221250Z 12011KT M00/M00 A2991 RMK A01 T10011002  RH  099%=      5-min Rain = 0
KHA2 221251Z 12011KT M00/M00 A2991 RMK A01 T10011002  RH  099%=      5-min Rain = 0
KHA2 221252Z 12010KT M00/M00 A2991 RMK A01 T10021003  RH  099%=      5-min Rain = 0
KHA2 221253Z 12009KT M00/M00 A2991 RMK A01 T10021003  RH  099%=      5-min Rain = 0
KHA2 221254Z 13010KT M00/M00 A2991 RMK A01 T10021003  RH  099%=      5-min Rain = 0
KHA2 221255Z 12011KT M00/M00 A2991 RMK A01 T10011002  RH  099%=      5-min Rain = 0
KHA2 221256Z 12011KT M00/M00 A2991 RMK A01 T10021003  RH  099%=      5-min Rain = 0
KHA2 221257Z 12012KT M00/M00 A2991 RMK A01 T10021003  RH  099%=      5-min Rain = 0
KHA2 221258Z 12011KT M00/M00 A2991 RMK A01 T10021003  RH  099%=      5-min Rain = 0
KHA2 221259Z 12012KT M00/M00 A2991 RMK A01 T10021003  RH  099%=      5-min Rain = 0
KHA2 221300Z 11011KT M00/M00 A2991 RMK A01 T10021003  RH  099%=      5-min Rain = 0
KHA2 221301Z 12010KT M00/M00 A2991 RMK A01 T10021003  RH  099%=      5-min Rain = 0
KHA2 221302Z 12010KT M00/M00 A2991 RMK A01 T10021003  RH  099%=      5-min Rain = 0
KHA2 221303Z 12010KT M00/M00 A2991 RMK A01 T10021003  RH  099%=      5-min Rain = 0
KHA2 221304Z 12010KT M00/M00 A2991 RMK A01 T10021003  RH  099%=      5-min Rain = 0
KHA2 221305Z 12011KT M00/M00 A2991 RMK A01 T10021003  RH  099%=      5-min Rain = 0
KHA2 221306Z 12010KT M00/M00 A2991 RMK A01 T10021003  RH  099%=      5-min Rain = 0
KHA2 221307Z 12010KT M00/M00 A2991 RMK A01 T10021003  RH  099%=      5-min Rain = 0
KHA2 221308Z 12012KT M00/M00 A2991 RMK A01 T10021003  RH  099%=      5-min Rain = 0
KHA2 221309Z 12012KT M00/M00 A2991 RMK A01 T10021003  RH  099%=      5-min Rain = 0
KHA2 221310Z 12012KT M00/M00 A2991 RMK A01 T10021003  RH  099%=      5-min Rain = 0
KHA2 221311Z 12011KT M00/M00 A2991 RMK A01 T10021003  RH  099%=      5-min Rain = 0
KHA2 221312Z 13010KT M00/M00 A2991 RMK A01 T10021003  RH  099%=      5-min Rain = 0
KHA2 221313Z 13012KT M00/M00 A2991 RMK A01 T10021003  RH  099%=      5-min Rain = 0
KHA2 221314Z 13011KT M00/M00 A2991 RMK A01 T10021003  RH  099%=      5-min Rain = 0
KHA2 221315Z 13012KT M00/M00 A2991 RMK A01 T10021003  RH  099%=      5-min Rain = 0
KHA2 221316Z 13012KT M00/M00 A2992 RMK A01 T10021003  RH  100%=      5-min Rain = 0
KHA2 221317Z 12012KT M00/M00 A2992 RMK A01 T10021003  RH  100%=      5-min Rain = 0
KHA2 221318Z 12012KT M00/M00 A2991 RMK A01 T10021003  RH  100%=      5-min Rain = 0
KHA2 221319Z 12014KT M00/M00 A2991 RMK A01 T10021003  RH  100%=      5-min Rain = 0
KHA2 221320Z 13012KT M00/M00 A2991 RMK A01 T10021003  RH  100%=      5-min Rain = 0
KHA2 221321Z 13012KT M00/M00 A2991 RMK A01 T10021003  RH  100%=      5-min Rain = 0
KHA2 221322Z 13013KT M00/M00 A2991 RMK A01 T10021003  RH  100%=      5-min Rain = 0
KHA2 221323Z 13013KT M00/M00 A2991 RMK A01 T10021003  RH  100%=      5-min Rain = 0
KHA2 221324Z 12013KT M00/M00 A2992 RMK A01 T10021003  RH  100%=      5-min Rain = 0
KHA2 221325Z 12012KT M00/M00 A2992 RMK A01 T10021003  RH  100%=      5-min Rain = 0
KHA2 221326Z 12012KT M00/M00 A2992 RMK A01 T10021003  RH  100%=      5-min Rain = 0
KHA2 221327Z 12013KT M00/M00 A2991 RMK A01 T10031003  RH  100%=      5-min Rain = 0
KHA2 221328Z 12012KT M00/M00 A2991 RMK A01 T10031003  RH  100%=      5-min Rain = 0
KHA2 221329Z 12012KT M00/M00 A2991 RMK A01 T10031003  RH  100%=      5-min Rain = 0
KHA2 221330Z 12012KT M00/M00 A2991 RMK A01 T10031003  RH  100%=      5-min Rain = 0
KHA2 221331Z 12011KT M00/M00 A2992 RMK A01 T10031003  RH  100%=      5-min Rain = 0
KHA2 221332Z 12011KT M00/M00 A2992 RMK A01 T10021003  RH  100%=      5-min Rain = 0
KHA2 221333Z 12012KT M00/M00 A2992 RMK A01 T10031003  RH  100%=      5-min Rain = 0
KHA2 221334Z 12011KT M00/M00 A2992 RMK A01 T10031003  RH  100%=      5-min Rain = 0
KHA2 221335Z 12012KT M00/M00 A2992 RMK A01 T10021003  RH  100%=      5-min Rain = 0
KHA2 221336Z 12012KT M00/M00 A2992 RMK A01 T10031003  RH  100%=      5-min Rain = 0
KHA2 221337Z 12011KT M00/M00 A2992 RMK A01 T10031003  RH  100%=      5-min Rain = 0
KHA2 221338Z 12012KT M00/M00 A2992 RMK A01 T10031003  RH  100%=      5-min Rain = 0
KHA2 221339Z 12011KT M00/M00 A2992 RMK A01 T10031004  RH  100%=      5-min Rain = 0
KHA2 221340Z 12011KT M00/M00 A2993 RMK A01 T10031003  RH  100%=      5-min Rain = 0
KHA2 221341Z 12010KT M00/M00 A2993 RMK A01 T10031004  RH  100%=      5-min Rain = 0
KHA2 221342Z 12009KT M00/M00 A2993 RMK A01 T10031004  RH  100%=      5-min Rain = 0
KHA2 221343Z 12008KT M00/M00 A2993 RMK A01 T10031004  RH  100%=      5-min Rain = 0
KHA2 221344Z 12009KT M00/M00 A2993 RMK A01 T10031003  RH  100%=      5-min Rain = 0
KHA2 221345Z 12010KT M00/M00 A2993 RMK A01 T10031003  RH  100%=      5-min Rain = 0
KHA2 221346Z 12009KT M00/M00 A2993 RMK A01 T10031003  RH  100%=      5-min Rain = 0
KHA2 221347Z 13010KT M00/M00 A2993 RMK A01 T10021003  RH  100%=      5-min Rain = 0
KHA2 221348Z 13010KT M00/M00 A2994 RMK A01 T10021003  RH  100%=      5-min Rain = 0
KHA2 221349Z 13009KT M00/M00 A2994 RMK A01 T10021003  RH  100%=      5-min Rain = 0
KHA2 221350Z 13009KT M00/M00 A2994 RMK A01 T10021003  RH  100%=      5-min Rain = 0
KHA2 221351Z 14010KT M00/M00 A2994 RMK A01 T10021003  RH  100%=      5-min Rain = 0
KHA2 221352Z 14010KT M00/M00 A2994 RMK A01 T10021003  RH  100%=      5-min Rain = 0
KHA2 221353Z 13011KT M00/M00 A2994 RMK A01 T10021003  RH  100%=      5-min Rain = 0
KHA2 221354Z 13011KT M00/M00 A2994 RMK A01 T10021003  RH  100%=      5-min Rain = 0
KHA2 221355Z 13010KT M00/M00 A2994 RMK A01 T10021003  RH  100%=      5-min Rain = 0
KHA2 221356Z 13010KT M00/M00 A2994 RMK A01 T10011002  RH  100%=      5-min Rain = 0
KHA2 221357Z 13009KT M00/M00 A2994 RMK A01 T10011002  RH  100%=      5-min Rain = 0
KHA2 221358Z 13010KT M00/M00 A2994 RMK A01 T10021002  RH  100%=      5-min Rain = 0
KHA2 221359Z 13008KT M00/M00 A2994 RMK A01 T10011002  RH  100%=      5-min Rain = 0
KHA2 221400Z 13007KT M00/M00 A2994 RMK A01 T10011001  RH  100%=      5-min Rain = 0
KHA2 221401Z 13010KT M00/M00 A2994 RMK A01 T10011001  RH  100%=      5-min Rain = 0
KHA2 221402Z 13010KT M00/M00 A2994 RMK A01 T10011001  RH  100%=      5-min Rain = 0
KHA2 221403Z 13009KT M00/M00 A2994 RMK A01 T10011001  RH  100%=      5-min Rain = 0
KHA2 221404Z 13009KT 00/00 A2994 RMK A01 T00-000-1  RH  100%=      5-min Rain = 0
KHA2 221405Z 13010KT 00/00 A2994 RMK A01 T00-000-1  RH  100%=      5-min Rain = 0
KHA2 221406Z 13011KT 00/00 A2994 RMK A01 T00-000-1  RH  100%=      5-min Rain = 0
KHA2 221407Z 13010KT 00/00 A2994 RMK A01 T00-000-1  RH  100%=      5-min Rain = 0
KHA2 221408Z 13010KT 00/00 A2994 RMK A01 T00-000-1  RH  100%=      5-min Rain = 0
KHA2 221409Z 13010KT 00/00 A2994 RMK A01 T000000-0  RH  100%=      5-min Rain = 0
KHA2 221410Z 14009KT 00/00 A2995 RMK A01 T000000-0  RH  100%=      5-min Rain = 0
KHA2 221411Z 13009KT 00/00 A2995 RMK A01 T000000-0  RH  100%=      5-min Rain = 0
KHA2 221412Z 13009KT 00/00 A2995 RMK A01 T00010000  RH  100%=      5-min Rain = 0
KHA2 221413Z 14007KT 00/00 A2995 RMK A01 T00010000  RH  100%=      5-min Rain = 0
KHA2 221414Z 14009KT 00/00 A2995 RMK A01 T00010001  RH  100%=      5-min Rain = 0
KHA2 221415Z 14009KT 00/00 A2995 RMK A01 T00010001  RH  100%=      5-min Rain = 0
KHA2 221416Z 14008KT 00/00 A2995 RMK A01 T00020001  RH  100%=      5-min Rain = 0
KHA2 221417Z 14009KT 00/00 A2995 RMK A01 T00010001  RH  100%=      5-min Rain = 0
KHA2 221418Z 14009KT 00/00 A2995 RMK A01 T00010001  RH  100%=      5-min Rain = 0
KHA2 221419Z 14008KT 00/00 A2995 RMK A01 T00020001  RH  100%=      5-min Rain = 0
KHA2 221420Z 14009KT 00/00 A2996 RMK A01 T00020002  RH  100%=      5-min Rain = 0
KHA2 221421Z 14010KT 00/00 A2996 RMK A01 T00020002  RH  100%=      5-min Rain = 0
KHA2 221422Z 14010KT 00/00 A2996 RMK A01 T00020002  RH  100%=      5-min Rain = 0
KHA2 221423Z 14010KT 00/00 A2996 RMK A01 T00030002  RH  100%=      5-min Rain = 0
KHA2 221424Z 14011KT 00/00 A2996 RMK A01 T00030002  RH  100%=      5-min Rain = 0
KHA2 221425Z 13010KT 00/00 A2996 RMK A01 T00030003  RH  100%=      5-min Rain = 0
KHA2 221426Z 14009KT 00/00 A2996 RMK A01 T00030003  RH  100%=      5-min Rain = 0
KHA2 221427Z 14010KT 00/00 A2996 RMK A01 T00030003  RH  100%=      5-min Rain = 0
KHA2 221428Z 14010KT 00/00 A2996 RMK A01 T00040003  RH  100%=      5-min Rain = 0
KHA2 221429Z 13011KT 00/00 A2996 RMK A01 T00040004  RH  100%=      5-min Rain = 0
KHA2 221430Z 13010KT 00/00 A2996 RMK A01 T00040004  RH  100%=      5-min Rain = 0
KHA2 221431Z 14010KT 00/00 A2996 RMK A01 T00040003  RH  100%=      5-min Rain = 0
KHA2 221432Z 14011KT 00/00 A2996 RMK A01 T00040004  RH  100%=      5-min Rain = 0
KHA2 221433Z 14012KT 01/00 A2996 RMK A01 T00050004  RH  100%=      5-min Rain = 0
KHA2 221434Z 13011KT 01/00 A2996 RMK A01 T00050004  RH  100%=      5-min Rain = 0
KHA2 221435Z 13013KT 01/00 A2996 RMK A01 T00050004  RH  100%=      5-min Rain = 0
KHA2 221436Z 14012KT 01/00 A2996 RMK A01 T00050004  RH  100%=      5-min Rain = 0
KHA2 221437Z 14012KT 01/00 A2996 RMK A01 T00050004  RH  100%=      5-min Rain = 0
KHA2 221438Z 14011KT 01/00 A2996 RMK A01 T00050004  RH  100%=      5-min Rain = 0
KHA2 221439Z 13011KT 01/01 A2996 RMK A01 T00050005  RH  100%=      5-min Rain = 0
KHA2 221440Z 13011KT 01/00 A2996 RMK A01 T00050004  RH  100%=      5-min Rain = 0
KHA2 221441Z 13010KT 01/00 A2996 RMK A01 T00050004  RH  100%=      5-min Rain = 0
KHA2 221442Z 13012KT 01/01 A2996 RMK A01 T00050005  RH  100%=      5-min Rain = 0
KHA2 221443Z 13012KT 01/00 A2996 RMK A01 T00050004  RH  100%=      5-min Rain = 0
KHA2 221444Z 13011KT 01/01 A2997 RMK A01 T00050005  RH  100%=      5-min Rain = 0
KHA2 221445Z 13010KT 01/01 A2997 RMK A01 T00050005  RH  100%=      5-min Rain = 0
KHA2 221446Z 13011KT 01/01 A2997 RMK A01 T00050005  RH  100%=      5-min Rain = 0
KHA2 221447Z 13009KT 01/01 A2997 RMK A01 T00050005  RH  100%=      5-min Rain = 0
KHA2 221448Z 13009KT 01/01 A2997 RMK A01 T00060005  RH  100%=      5-min Rain = 0
KHA2 221449Z 13009KT 01/01 A2997 RMK A01 T00060005  RH  100%=      5-min Rain = 0
KHA2 221450Z 13010KT 01/01 A2997 RMK A01 T00060006  RH  100%=      5-min Rain = 0
KHA2 221451Z 14011KT 01/01 A2997 RMK A01 T00060006  RH  100%=      5-min Rain = 0
KHA2 221452Z 14011KT 01/01 A2997 RMK A01 T00060006  RH  100%=      5-min Rain = 0
KHA2 221453Z 13010KT 01/01 A2997 RMK A01 T00060005  RH  100%=      5-min Rain = 0
KHA2 221454Z 13009KT 01/01 A2997 RMK A01 T00060005  RH  100%=      5-min Rain = 0
KHA2 221455Z 13012KT 01/01 A2997 RMK A01 T00060006  RH  100%=      5-min Rain = 0
KHA2 221456Z 13011KT 01/01 A2996 RMK A01 T00060006  RH  100%=      5-min Rain = 0
KHA2 221457Z 13011KT 01/01 A2996 RMK A01 T00060005  RH  100%=      5-min Rain = 0
KHA2 221458Z 13011KT 01/01 A2996 RMK A01 T00060006  RH  100%=      5-min Rain = 0
KHA2 221459Z 13012KT 01/01 A2996 RMK A01 T00060006  RH  100%=      5-min Rain = 0
KHA2 221500Z 13012KT 01/01 A2996 RMK A01 T00060006  RH  100%=      5-min Rain = 0
KHA2 221501Z 13012KT 01/01 A2996 RMK A01 T00060006  RH  100%=      5-min Rain = 0
KHA2 221502Z 13012KT 01/01 A2996 RMK A01 T00070006  RH  100%=      5-min Rain = 0
KHA2 221503Z 13011KT 01/01 A2996 RMK A01 T00070006  RH  100%=      5-min Rain = 0
KHA2 221504Z 14012KT 01/01 A2996 RMK A01 T00070007  RH  100%=      5-min Rain = 0
KHA2 221505Z 14011KT 01/01 A2996 RMK A01 T00070007  RH  100%=      5-min Rain = 0
KHA2 221506Z 13009KT 01/01 A2997 RMK A01 T00080007  RH  100%=      5-min Rain = 0
KHA2 221507Z 13009KT 01/01 A2997 RMK A01 T00090008  RH  100%=      5-min Rain = 0
KHA2 221508Z 14010KT 01/01 A2997 RMK A01 T00090009  RH  100%=      5-min Rain = 0
KHA2 221509Z 14011KT 01/01 A2997 RMK A01 T00090009  RH  100%=      5-min Rain = 0
KHA2 221510Z 14010KT 01/01 A2997 RMK A01 T00090009  RH  100%=      5-min Rain = 0
KHA2 221511Z 13009KT 01/01 A2997 RMK A01 T00090009  RH  100%=      5-min Rain = 0
KHA2 221512Z 13011KT 01/01 A2997 RMK A01 T00090008  RH  100%=      5-min Rain = 0
KHA2 221513Z 13012KT 01/01 A2997 RMK A01 T00090008  RH  100%=      5-min Rain = 0
KHA2 221514Z 13012KT 01/01 A2996 RMK A01 T00080008  RH  100%=      5-min Rain = 0
KHA2 221515Z 13012KT 01/01 A2997 RMK A01 T00080008  RH  100%=      5-min Rain = 0
KHA2 221516Z 13012KT 01/01 A2997 RMK A01 T00090008  RH  100%=      5-min Rain = 0
KHA2 221517Z 14010KT 01/01 A2997 RMK A01 T00090009  RH  100%=      5-min Rain = 0
KHA2 221518Z 14011KT 01/01 A2997 RMK A01 T00100010  RH  100%=      5-min Rain = 0
KHA2 221519Z 14011KT 01/01 A2997 RMK A01 T00100010  RH  100%=      5-min Rain = 0
KHA2 221520Z 14011KT 01/01 A2997 RMK A01 T00100010  RH  100%=      5-min Rain = 0
KHA2 221521Z 14011KT 01/01 A2997 RMK A01 T00100010  RH  100%=      5-min Rain = 0
KHA2 221522Z 14011KT 01/01 A2997 RMK A01 T00100010  RH  100%=      5-min Rain = 0
KHA2 221523Z 14011KT 01/01 A2997 RMK A01 T00100010  RH  100%=      5-min Rain = 0
KHA2 221524Z 14009KT 01/01 A2997 RMK A01 T00100010  RH  100%=      5-min Rain = 0
KHA2 221525Z 13010KT 01/01 A2997 RMK A01 T00100010  RH  100%=      5-min Rain = 0
KHA2 221526Z 13008KT 01/01 A2997 RMK A01 T00110010  RH  100%=      5-min Rain = 0
KHA2 221527Z 14010KT 01/01 A2997 RMK A01 T00110011  RH  100%=      5-min Rain = 0
KHA2 221528Z 13009KT 01/01 A2997 RMK A01 T00110010  RH  100%=      5-min Rain = 0
KHA2 221529Z 12010KT 01/01 A2997 RMK A01 T00110011  RH  100%=      5-min Rain = 0
KHA2 221530Z 12009KT 01/01 A2997 RMK A01 T00110011  RH  100%=      5-min Rain = 0
KHA2 221531Z 12009KT 01/01 A2997 RMK A01 T00110011  RH  100%=      5-min Rain = 0
KHA2 221532Z 12009KT 01/01 A2998 RMK A01 T00120011  RH  100%=      5-min Rain = 0
KHA2 221533Z 12008KT 01/01 A2998 RMK A01 T00120011  RH  100%=      5-min Rain = 0
KHA2 221534Z 12008KT 01/01 A2998 RMK A01 T00120011  RH  100%=      5-min Rain = 0
KHA2 221535Z 12009KT 01/01 A2998 RMK A01 T00130012  RH  100%=      5-min Rain = 0
KHA2 221536Z 13010KT 01/01 A2998 RMK A01 T00130012  RH  100%=      5-min Rain = 0
KHA2 221537Z 12009KT 01/01 A2998 RMK A01 T00120011  RH  100%=      5-min Rain = 0
KHA2 221538Z 12009KT 01/01 A2998 RMK A01 T00120011  RH  100%=      5-min Rain = 0
KHA2 221539Z 13009KT 01/01 A2998 RMK A01 T00120012  RH  100%=      5-min Rain = 0
KHA2 221540Z 12007KT 01/01 A2998 RMK A01 T00120011  RH  100%=      5-min Rain = 0
KHA2 221541Z 12009KT 01/01 A2998 RMK A01 T00130013  RH  100%=      5-min Rain = 0
KHA2 221542Z 12008KT 01/01 A2998 RMK A01 T00130013  RH  100%=      5-min Rain = 0
KHA2 221543Z 13007KT 01/01 A2998 RMK A01 T00130013  RH  100%=      5-min Rain = 0
KHA2 221544Z 13007KT 02/01 A2998 RMK A01 T00150014  RH  100%=      5-min Rain = 0
KHA2 221545Z 12009KT 02/02 A2998 RMK A01 T00150015  RH  100%=      5-min Rain = 0
KHA2 221546Z 12009KT 02/02 A2997 RMK A01 T00150015  RH  100%=      5-min Rain = 0
KHA2 221547Z 12010KT 01/01 A2997 RMK A01 T00140013  RH  100%=      5-min Rain = 0
KHA2 221548Z 12010KT 01/01 A2998 RMK A01 T00140013  RH  100%=      5-min Rain = 0
KHA2 221549Z 12009KT 01/01 A2998 RMK A01 T00130012  RH  100%=      5-min Rain = 0
KHA2 221550Z 12009KT 01/01 A2998 RMK A01 T00130013  RH  100%=      5-min Rain = 0
KHA2 221551Z 13008KT 01/01 A2998 RMK A01 T00130013  RH  100%=      5-min Rain = 0
KHA2 221552Z 13009KT 01/01 A2998 RMK A01 T00140014  RH  100%=      5-min Rain = 0
KHA2 221553Z 12008KT 01/01 A2997 RMK A01 T00140014  RH  100%=      5-min Rain = 0
KHA2 221554Z 12009KT 02/02 A2997 RMK A01 T00150015  RH  100%=      5-min Rain = 0
KHA2 221555Z 12009KT 02/02 A2997 RMK A01 T00150015  RH  100%=      5-min Rain = 0
KHA2 221556Z 12009KT 02/02 A2997 RMK A01 T00150015  RH  100%=      5-min Rain = 0
KHA2 221557Z 12008KT 02/01 A2997 RMK A01 T00150014  RH  100%=      5-min Rain = 0
KHA2 221558Z 13009KT 02/02 A2997 RMK A01 T00150015  RH  100%=      5-min Rain = 0
KHA2 221559Z 13008KT 02/02 A2997 RMK A01 T00160016  RH  100%=      5-min Rain = 0
KHA2 221600Z 13007KT 02/02 A2997 RMK A01 T00170017  RH  100%=      5-min Rain = 0
KHA2 221601Z 13008KT 02/02 A2997 RMK A01 T00180017  RH  100%=      5-min Rain = 0
KHA2 221602Z 13008KT 02/02 A2997 RMK A01 T00180017  RH  100%=      5-min Rain = 0
KHA2 221603Z 14008KT 02/02 A2997 RMK A01 T00190018  RH  100%=      5-min Rain = 0
KHA2 221604Z 14009KT 02/02 A2997 RMK A01 T00190019  RH  100%=      5-min Rain = 0
KHA2 221605Z 14009KT 02/02 A2997 RMK A01 T00190019  RH  100%=      5-min Rain = 0
KHA2 221606Z 14009KT 02/02 A2998 RMK A01 T00180018  RH  100%=      5-min Rain = 0
KHA2 221607Z 14008KT 02/02 A2997 RMK A01 T00190018  RH  100%=      5-min Rain = 0
KHA2 221608Z 14008KT 02/02 A2997 RMK A01 T00180018  RH  100%=      5-min Rain = 0
KHA2 221609Z 14008KT 02/02 A2998 RMK A01 T00180018  RH  100%=      5-min Rain = 0
KHA2 221610Z 13008KT 02/02 A2998 RMK A01 T00180018  RH  100%=      5-min Rain = 0
KHA2 221611Z 13008KT 02/02 A2998 RMK A01 T00170016  RH  100%=      5-min Rain = 0
KHA2 221612Z 12008KT 02/02 A2998 RMK A01 T00170016  RH  100%=      5-min Rain = 0
KHA2 221613Z 13008KT 02/02 A2998 RMK A01 T00180018  RH  100%=      5-min Rain = 0
KHA2 221614Z 13008KT 02/02 A2998 RMK A01 T00180018  RH  100%=      5-min Rain = 0
KHA2 221615Z 13007KT 02/02 A2997 RMK A01 T00180018  RH  100%=      5-min Rain = 0
KHA2 221616Z 13007KT 02/02 A2997 RMK A01 T00190018  RH  100%=      5-min Rain = 0
KHA2 221617Z 14007KT 02/02 A2997 RMK A01 T00200020  RH  100%=      5-min Rain = 0
KHA2 221618Z 14007KT 02/02 A2997 RMK A01 T00200020  RH  100%=      5-min Rain = 0
KHA2 221619Z 14007KT 02/02 A2997 RMK A01 T00200019  RH  100%=      5-min Rain = 0
KHA2 221620Z 14006KT 02/02 A2997 RMK A01 T00190019  RH  100%=      5-min Rain = 0
KHA2 221621Z 13008KT 02/02 A2997 RMK A01 T00190019  RH  100%=      5-min Rain = 0
KHA2 221622Z 13007KT 02/02 A2997 RMK A01 T00190019  RH  100%=      5-min Rain = 0
KHA2 221623Z 14006KT 02/02 A2997 RMK A01 T00200019  RH  100%=      5-min Rain = 0
KHA2 221624Z 14008KT 02/02 A2997 RMK A01 T00200019  RH  100%=      5-min Rain = 0
KHA2 221625Z 15007KT 02/02 A2997 RMK A01 T00210020  RH  100%=      5-min Rain = 0
KHA2 221626Z 14008KT 02/02 A2997 RMK A01 T00220021  RH  100%=      5-min Rain = 0
KHA2 221627Z 14007KT 02/02 A2997 RMK A01 T00220022  RH  100%=      5-min Rain = 0
KHA2 221628Z 13008KT 02/02 A2997 RMK A01 T00210021  RH  100%=      5-min Rain = 0
KHA2 221629Z 13008KT 02/02 A2997 RMK A01 T00220021  RH  100%=      5-min Rain = 0
KHA2 221630Z 12009KT 02/02 A2997 RMK A01 T00230023  RH  100%=      5-min Rain = 0
KHA2 221631Z 14008KT 02/02 A2997 RMK A01 T00230023  RH  100%=      5-min Rain = 0
KHA2 221632Z 13009KT 02/02 A2997 RMK A01 T00230022  RH  100%=      5-min Rain = 0
KHA2 221633Z 14008KT 02/02 A2997 RMK A01 T00230022  RH  100%=      5-min Rain = 0
KHA2 221634Z 14008KT 02/02 A2996 RMK A01 T00230022  RH  100%=      5-min Rain = 0
KHA2 221635Z 14010KT 02/02 A2996 RMK A01 T00230023  RH  100%=      5-min Rain = 0
KHA2 221636Z 14009KT 02/02 A2996 RMK A01 T00230022  RH  100%=      5-min Rain = 0
KHA2 221637Z 15009KT 02/02 A2996 RMK A01 T00230022  RH  100%=      5-min Rain = 0
KHA2 221638Z 14007KT 02/02 A2996 RMK A01 T00230023  RH  100%=      5-min Rain = 0
KHA2 221639Z 13007KT 02/02 A2996 RMK A01 T00240024  RH  100%=      5-min Rain = 0
KHA2 221640Z 13009KT 03/03 A2996 RMK A01 T00260026  RH  100%=      5-min Rain = 0
KHA2 221641Z 14009KT 03/03 A2996 RMK A01 T00270027  RH  100%=      5-min Rain = 0
KHA2 221642Z 13010KT 03/03 A2996 RMK A01 T00270026  RH  100%=      5-min Rain = 0
KHA2 221643Z 14010KT 03/03 A2996 RMK A01 T00250025  RH  100%=      5-min Rain = 0
KHA2 221644Z 14009KT 03/03 A2996 RMK A01 T00260025  RH  100%=      5-min Rain = 0
KHA2 221645Z 14009KT 03/03 A2996 RMK A01 T00260026  RH  100%=      5-min Rain = 0
KHA2 221646Z 13009KT 03/03 A2996 RMK A01 T00260026  RH  100%=      5-min Rain = 0
KHA2 221647Z 14009KT 03/03 A2996 RMK A01 T00270026  RH  100%=      5-min Rain = 0
KHA2 221648Z 14009KT 03/03 A2996 RMK A01 T00270026  RH  100%=      5-min Rain = 0
KHA2 221649Z 13007KT 03/03 A2996 RMK A01 T00260026  RH  100%=      5-min Rain = 0
KHA2 221650Z 14007KT 03/03 A2996 RMK A01 T00270026  RH  100%=      5-min Rain = 0
KHA2 221651Z 14008KT 03/03 A2996 RMK A01 T00270027  RH  100%=      5-min Rain = 0
KHA2 221652Z 14008KT 03/03 A2996 RMK A01 T00280027  RH  100%=      5-min Rain = 0
KHA2 221653Z 15006KT 03/03 A2996 RMK A01 T00270027  RH  100%=      5-min Rain = 0
KHA2 221654Z 14008KT 03/03 A2996 RMK A01 T00290028  RH  100%=      5-min Rain = 0
KHA2 221655Z 14008KT 03/03 A2996 RMK A01 T00290029  RH  100%=      5-min Rain = 0
KHA2 221656Z 14010KT 03/03 A2996 RMK A01 T00290029  RH  100%=      5-min Rain = 0
KHA2 221657Z 15009KT 03/03 A2996 RMK A01 T00280027  RH  100%=      5-min Rain = 0
KHA2 221658Z 15009KT 03/03 A2996 RMK A01 T00290028  RH  100%=      5-min Rain = 0
KHA2 221659Z 15007KT 03/03 A2996 RMK A01 T00290028  RH  100%=      5-min Rain = 0
KHA2 221700Z 13010KT 03/03 A2996 RMK A01 T00300030  RH  100%=      5-min Rain = 0
KHA2 221701Z 13009KT 03/03 A2996 RMK A01 T00300030  RH  100%=      5-min Rain = 0
KHA2 221702Z 14009KT 03/03 A2996 RMK A01 T00290029  RH  100%=      5-min Rain = 0
KHA2 221703Z 15009KT 03/03 A2996 RMK A01 T00300029  RH  100%=      5-min Rain = 0
KHA2 221704Z 14009KT 03/03 A2996 RMK A01 T00300030  RH  100%=      5-min Rain = 0
KHA2 221705Z 14008KT 03/03 A2996 RMK A01 T00310030  RH  100%=      5-min Rain = 0
KHA2 221706Z 13008KT 03/03 A2996 RMK A01 T00320031  RH  100%=      5-min Rain = 0
KHA2 221707Z 13009KT 03/03 A2995 RMK A01 T00320032  RH  100%=      5-min Rain = 0
KHA2 221708Z 13009KT 03/03 A2995 RMK A01 T00320031  RH  100%=      5-min Rain = 0
KHA2 221709Z 14009KT 03/03 A2996 RMK A01 T00310030  RH  099%=      5-min Rain = 0
KHA2 221710Z 14009KT 03/03 A2995 RMK A01 T00300030  RH  099%=      5-min Rain = 0
KHA2 221711Z 14009KT 03/03 A2996 RMK A01 T00310030  RH  100%=      5-min Rain = 0
KHA2 221712Z 14009KT 03/03 A2995 RMK A01 T00310030  RH  099%=      5-min Rain = 0
KHA2 221713Z 15008KT 03/03 A2995 RMK A01 T00310030  RH  099%=      5-min Rain = 0
KHA2 221714Z 15008KT 03/03 A2996 RMK A01 T00320031  RH  100%=      5-min Rain = 0
KHA2 221715Z 14008KT 03/03 A2996 RMK A01 T00320031  RH  100%=      5-min Rain = 0
KHA2 221716Z 15007KT 03/03 A2995 RMK A01 T00320031  RH  099%=      5-min Rain = 0
KHA2 221717Z 15009KT 03/03 A2995 RMK A01 T00320031  RH  099%=      5-min Rain = 0
KHA2 221718Z 14010KT 03/03 A2995 RMK A01 T00320031  RH  099%=      5-min Rain = 0
KHA2 221719Z 15010KT 03/03 A2995 RMK A01 T00320031  RH  099%=      5-min Rain = 0
KHA2 221720Z 15009KT 03/03 A2995 RMK A01 T00330032  RH  099%=      5-min Rain = 0
KHA2 221721Z 15009KT 03/03 A2995 RMK A01 T00320031  RH  099%=      5-min Rain = 0
KHA2 221722Z 14009KT 03/03 A2995 RMK A01 T00330032  RH  099%=      5-min Rain = 0
KHA2 221723Z 15009KT 03/03 A2995 RMK A01 T00340033  RH  099%=      5-min Rain = 0
KHA2 221724Z 14008KT 03/03 A2995 RMK A01 T00340033  RH  099%=      5-min Rain = 0
KHA2 221725Z 14009KT 04/03 A2995 RMK A01 T00350034  RH  099%=      5-min Rain = 0
KHA2 221726Z 14009KT 03/03 A2995 RMK A01 T00340033  RH  099%=      5-min Rain = 0
KHA2 221727Z 13009KT 04/03 A2995 RMK A01 T00350034  RH  099%=      5-min Rain = 0
KHA2 221728Z 14007KT 03/03 A2995 RMK A01 T00340032  RH  099%=      5-min Rain = 0
KHA2 221729Z 15009KT 03/03 A2995 RMK A01 T00340033  RH  099%=      5-min Rain = 0
KHA2 221730Z 15009KT 04/03 A2995 RMK A01 T00350033  RH  099%=      5-min Rain = 0
KHA2 221731Z 15008KT 03/03 A2995 RMK A01 T00340033  RH  099%=      5-min Rain = 0
KHA2 221732Z 14009KT 04/03 A2995 RMK A01 T00350034  RH  099%=      5-min Rain = 0
KHA2 221733Z 16010KT 04/04 A2995 RMK A01 T00360035  RH  099%=      5-min Rain = 0
KHA2 221734Z 15010KT 04/04 A2995 RMK A01 T00370035  RH  099%=      5-min Rain = 0
KHA2 221735Z 15009KT 04/04 A2995 RMK A01 T00380036  RH  099%=      5-min Rain = 0
KHA2 221736Z 14008KT 04/04 A2995 RMK A01 T00390037  RH  099%=      5-min Rain = 0
KHA2 221737Z 15008KT 04/04 A2995 RMK A01 T00380036  RH  098%=      5-min Rain = 0
KHA2 221738Z 15010KT 04/04 A2995 RMK A01 T00380035  RH  098%=      5-min Rain = 0
KHA2 221739Z 14009KT 04/04 A2994 RMK A01 T00370035  RH  098%=      5-min Rain = 0
KHA2 221740Z 14011KT 04/04 A2994 RMK A01 T00380036  RH  098%=      5-min Rain = 0
KHA2 221741Z 14011KT 04/04 A2994 RMK A01 T00380035  RH  098%=      5-min Rain = 0
KHA2 221742Z 14010KT 04/03 A2994 RMK A01 T00380034  RH  098%=      5-min Rain = 0
KHA2 221743Z 15011KT 04/04 A2994 RMK A01 T00390035  RH  098%=      5-min Rain = 0
KHA2 221744Z 14011KT 04/04 A2994 RMK A01 T00390036  RH  098%=      5-min Rain = 0
KHA2 221745Z 15010KT 04/04 A2994 RMK A01 T00390036  RH  098%=      5-min Rain = 0
KHA2 221746Z 15011KT 04/04 A2994 RMK A01 T00390035  RH  097%=      5-min Rain = 0
KHA2 221747Z 15011KT 04/03 A2994 RMK A01 T00390034  RH  097%=      5-min Rain = 0
KHA2 221748Z 15010KT 04/04 A2994 RMK A01 T00390035  RH  097%=      5-min Rain = 0
KHA2 221749Z 15008KT 04/04 A2994 RMK A01 T00410037  RH  097%=      5-min Rain = 0
KHA2 221750Z 15010KT 04/04 A2994 RMK A01 T00430039  RH  097%=      5-min Rain = 0
KHA2 221751Z 15010KT 04/04 A2994 RMK A01 T00430038  RH  097%=      5-min Rain = 0
KHA2 221752Z 13010KT 04/04 A2994 RMK A01 T00420036  RH  096%=      5-min Rain = 0
KHA2 221753Z 14010KT 04/04 A2994 RMK A01 T00420036  RH  096%=      5-min Rain = 0
KHA2 221754Z 15011KT 04/04 A2994 RMK A01 T00420036  RH  096%=      5-min Rain = 0
KHA2 221755Z 14011KT 04/03 A2994 RMK A01 T00410034  RH  095%=      5-min Rain = 0
KHA2 221756Z 14011KT 04/03 A2994 RMK A01 T00400033  RH  095%=      5-min Rain = 0
KHA2 221757Z 15010KT 04/03 A2993 RMK A01 T00400033  RH  095%=      5-min Rain = 0
KHA2 221758Z 15012KT 04/04 A2993 RMK A01 T00420035  RH  095%=      5-min Rain = 0
KHA2 221759Z 15011KT 04/03 A2993 RMK A01 T00420034  RH  095%=      5-min Rain = 0
KHA2 221800Z 16010KT 04/03 A2993 RMK A01 T00420034  RH  095%=      5-min Rain = 0
KHA2 221801Z 16010KT 04/04 A2993 RMK A01 T00430036  RH  095%=      5-min Rain = 0
KHA2 221802Z 17008KT 04/04 A2993 RMK A01 T00440035  RH  094%=      5-min Rain = 0
KHA2 221803Z 16009KT 05/04 A2993 RMK A01 T00450037  RH  094%=      5-min Rain = 0
KHA2 221804Z 16009KT 05/04 A2993 RMK A01 T00480039  RH  094%=      5-min Rain = 0
KHA2 221805Z 17011KT 05/04 A2993 RMK A01 T00490038  RH  093%=      5-min Rain = 0
KHA2 221806Z 17008KT 05/04 A2993 RMK A01 T00480037  RH  092%=      5-min Rain = 0
KHA2 221807Z 16009KT 05/04 A2993 RMK A01 T00490037  RH  092%=      5-min Rain = 0
KHA2 221808Z 16010KT 05/04 A2993 RMK A01 T00490036  RH  092%=      5-min Rain = 0
KHA2 221809Z 15010KT 05/04 A2993 RMK A01 T00490035  RH  091%=      5-min Rain = 0
KHA2 221810Z 16008KT 05/03 A2993 RMK A01 T00480034  RH  091%=      5-min Rain = 0
KHA2 221811Z 16010KT 05/04 A2993 RMK A01 T00500036  RH  091%=      5-min Rain = 0
KHA2 221812Z 16010KT 05/04 A2993 RMK A01 T00520036  RH  090%=      5-min Rain = 0
KHA2 221813Z 15009KT 05/04 A2993 RMK A01 T00530035  RH  089%=      5-min Rain = 0
KHA2 221814Z 15010KT 05/04 A2993 RMK A01 T00530035  RH  088%=      5-min Rain = 0
KHA2 221815Z 15010KT 05/03 A2993 RMK A01 T00530034  RH  088%=      5-min Rain = 0
KHA2 221816Z 15010G15KT 05/03 A2993 RMK A01 T00520033  RH  087%=      5-min Rain = 0
KHA2 221817Z 15013KT 05/03 A2993 RMK A01 T00520032  RH  087%=      5-min Rain = 0
KHA2 221818Z 16010KT 05/03 A2993 RMK A01 T00530032  RH  087%=      5-min Rain = 0
KHA2 221819Z 16009KT 05/03 A2992 RMK A01 T00520032  RH  086%=      5-min Rain = 0
KHA2 221820Z 16007KT 05/03 A2992 RMK A01 T00530031  RH  086%=      5-min Rain = 0
KHA2 221821Z 16010KT 05/03 A2992 RMK A01 T00530032  RH  086%=      5-min Rain = 0
KHA2 221822Z 16010KT 06/03 A2992 RMK A01 T00560034  RH  086%=      5-min Rain = 0
KHA2 221823Z 16009KT 06/03 A2992 RMK A01 T00570034  RH  085%=      5-min Rain = 0
KHA2 221824Z 16012KT 06/04 A2992 RMK A01 T00590035  RH  084%=      5-min Rain = 0
KHA2 221825Z 17012KT 06/03 A2992 RMK A01 T00600033  RH  083%=      5-min Rain = 0
KHA2 221826Z 18010KT 06/03 A2992 RMK A01 T00600031  RH  082%=      5-min Rain = 0
KHA2 221827Z 17008KT 06/03 A2992 RMK A01 T00600031  RH  082%=      5-min Rain = 0
KHA2 221828Z 17011KT 06/03 A2992 RMK A01 T00600033  RH  082%=      5-min Rain = 0
KHA2 221829Z 17012KT 06/03 A2992 RMK A01 T00600032  RH  082%=      5-min Rain = 0
KHA2 221830Z 17009KT 06/03 A2992 RMK A01 T00590030  RH  082%=      5-min Rain = 0
KHA2 221831Z 17010KT 06/03 A2992 RMK A01 T00580031  RH  083%=      5-min Rain = 0
KHA2 221832Z 16011KT 06/03 A2992 RMK A01 T00590032  RH  083%=      5-min Rain = 0
KHA2 221833Z 16008KT 06/03 A2992 RMK A01 T00590032  RH  082%=      5-min Rain = 0
KHA2 221834Z 17007KT 06/03 A2992 RMK A01 T00590033  RH  083%=      5-min Rain = 0
KHA2 221835Z 16009KT 06/03 A2992 RMK A01 T00610034  RH  083%=      5-min Rain = 0
KHA2 221836Z 16009KT 06/03 A2992 RMK A01 T00610031  RH  081%=      5-min Rain = 0
KHA2 221837Z 17009KT 06/03 A2992 RMK A01 T00610031  RH  081%=      5-min Rain = 0
KHA2 221838Z 18008KT 06/03 A2992 RMK A01 T00620031  RH  081%=      5-min Rain = 0
KHA2 221839Z 18009KT 06/03 A2992 RMK A01 T00630032  RH  081%=      5-min Rain = 0
KHA2 221840Z 18011KT 06/03 A2992 RMK A01 T00630031  RH  080%=      5-min Rain = 0
KHA2 221841Z 18010KT 06/03 A2992 RMK A01 T00630030  RH  079%=      5-min Rain = 0
KHA2 221842Z 18009KT 06/03 A2992 RMK A01 T00610028  RH  080%=      5-min Rain = 0
KHA2 221843Z 18011KT 06/03 A2991 RMK A01 T00620031  RH  081%=      5-min Rain = 0
KHA2 221844Z 18010KT 06/03 A2991 RMK A01 T00640030  RH  079%=      5-min Rain = 0
KHA2 221845Z 19010KT 06/03 A2991 RMK A01 T00640029  RH  078%=      5-min Rain = 0
KHA2 221846Z 19010KT 07/03 A2991 RMK A01 T00650030  RH  079%=      5-min Rain = 0
KHA2 221847Z 19010KT 07/03 A2991 RMK A01 T00650031  RH  079%=      5-min Rain = 0
KHA2 221848Z 17013KT 07/03 A2991 RMK A01 T00690034  RH  078%=      5-min Rain = 0
KHA2 221849Z 17010KT 07/03 A2991 RMK A01 T00690031  RH  077%=      5-min Rain = 0
KHA2 221850Z 17010KT 07/03 A2991 RMK A01 T00690031  RH  077%=      5-min Rain = 0
KHA2 221851Z 18010KT 07/03 A2991 RMK A01 T00700031  RH  076%=      5-min Rain = 0
KHA2 221852Z 18009KT 07/03 A2991 RMK A01 T00690030  RH  076%=      5-min Rain = 0
KHA2 221853Z 19009KT 07/03 A2991 RMK A01 T00680031  RH  077%=      5-min Rain = 0
KHA2 221854Z 19011KT 07/03 A299 RMK A01 T00690031  RH  077%=      5-min Rain = 0
KHA2 221855Z 18012KT 07/03 A299 RMK A01 T00680029  RH  077%=      5-min Rain = 0
KHA2 221856Z 19011KT 07/03 A299 RMK A01 T00670029  RH  076%=      5-min Rain = 0
KHA2 221857Z 18009KT 07/03 A299 RMK A01 T00670028  RH  077%=      5-min Rain = 0
KHA2 221858Z 18007KT 07/03 A299 RMK A01 T00660028  RH  077%=      5-min Rain = 0
KHA2 221859Z 18009KT 07/03 A299 RMK A01 T00650030  RH  078%=      5-min Rain = 0
KHA2 221900Z 18009KT 07/03 A299 RMK A01 T00670032  RH  078%=      5-min Rain = 0
KHA2 221901Z 18008KT 07/03 A299 RMK A01 T00660030  RH  078%=      5-min Rain = 0
KHA2 221902Z 19006KT 07/03 A299 RMK A01 T00670030  RH  077%=      5-min Rain = 0
KHA2 221903Z 18009KT 07/03 A299 RMK A01 T00700032  RH  077%=      5-min Rain = 0
KHA2 221904Z 17010KT 07/03 A299 RMK A01 T00710032  RH  076%=      5-min Rain = 0
KHA2 221905Z 18009KT 07/03 A299 RMK A01 T00700031  RH  076%=      5-min Rain = 0
KHA2 221906Z 18007KT 07/03 A299 RMK A01 T00690030  RH  076%=      5-min Rain = 0
KHA2 221907Z 16007KT 07/03 A299 RMK A01 T00670030  RH  077%=      5-min Rain = 0
KHA2 221908Z 18011KT 07/03 A2989 RMK A01 T00670030  RH  077%=      5-min Rain = 0
KHA2 221909Z 18011KT 07/03 A2989 RMK A01 T00710031  RH  076%=      5-min Rain = 0
KHA2 221910Z 18011KT 08/03 A2989 RMK A01 T00750034  RH  075%=      5-min Rain = 0
KHA2 221911Z 16011KT 08/03 A2989 RMK A01 T00760030  RH  073%=      5-min Rain = 0
KHA2 221912Z 15010KT 07/03 A2989 RMK A01 T00730028  RH  073%=      5-min Rain = 0
KHA2 221913Z 18010KT 08/03 A2989 RMK A01 T00770034  RH  074%=      5-min Rain = 0
KHA2 221914Z 18009KT 08/03 A2989 RMK A01 T00820033  RH  072%=      5-min Rain = 0
KHA2 221915Z 17010KT 08/03 A2989 RMK A01 T00810030  RH  070%=      5-min Rain = 0
KHA2 221916Z 16009KT 08/03 A2989 RMK A01 T00790029  RH  071%=      5-min Rain = 0
KHA2 221917Z 18010KT 08/03 A2988 RMK A01 T00760028  RH  071%=      5-min Rain = 0
KHA2 221918Z 17011KT 08/03 A2988 RMK A01 T00760029  RH  072%=      5-min Rain = 0
KHA2 221919Z 16012KT 08/03 A2988 RMK A01 T00790033  RH  073%=      5-min Rain = 0
KHA2 221920Z 16010KT 08/03 A2988 RMK A01 T00800031  RH  071%=      5-min Rain = 0
KHA2 221921Z 16011KT 08/03 A2988 RMK A01 T00780030  RH  072%=      5-min Rain = 0
KHA2 221922Z 16009KT 08/03 A2988 RMK A01 T00760028  RH  072%=      5-min Rain = 0
KHA2 221923Z 17008KT 07/03 A2988 RMK A01 T00730028  RH  073%=      5-min Rain = 0
KHA2 221924Z 15009KT 07/03 A2988 RMK A01 T00740031  RH  074%=      5-min Rain = 0
KHA2 221925Z 15007KT 08/03 A2988 RMK A01 T00790033  RH  073%=      5-min Rain = 0
KHA2 221926Z 17009KT 08/03 A2988 RMK A01 T00820034  RH  072%=      5-min Rain = 0
KHA2 221927Z 19008KT 09/03 A2988 RMK A01 T00850033  RH  070%=      5-min Rain = 0
KHA2 221928Z 18008KT 09/03 A2988 RMK A01 T00870032  RH  068%=      5-min Rain = 0
KHA2 221929Z 16008KT 09/03 A2988 RMK A01 T00860031  RH  068%=      5-min Rain = 0
KHA2 221930Z 19009KT 09/03 A2988 RMK A01 T00850030  RH  069%=      5-min Rain = 0
KHA2 221931Z 20008KT 08/03 A2988 RMK A01 T00830029  RH  069%=      5-min Rain = 0
KHA2 221932Z 17009KT 08/03 A2988 RMK A01 T00830031  RH  070%=      5-min Rain = 0
KHA2 221933Z 15009KT 09/03 A2988 RMK A01 T00850032  RH  069%=      5-min Rain = 0
KHA2 221934Z 16008KT 09/03 A2987 RMK A01 T00870031  RH  068%=      5-min Rain = 0
KHA2 221935Z 19010KT 09/04 A2987 RMK A01 T00900035  RH  068%=      5-min Rain = 0
KHA2 221936Z 19012KT 09/04 A2987 RMK A01 T00930035  RH  067%=      5-min Rain = 0
KHA2 221937Z 19011KT 10/03 A2987 RMK A01 T00950034  RH  066%=      5-min Rain = 0
KHA2 221938Z 19008KT 09/03 A2987 RMK A01 T00880028  RH  066%=      5-min Rain = 0
KHA2 221939Z 19006KT 09/03 A2987 RMK A01 T00850029  RH  068%=      5-min Rain = 0
KHA2 221940Z 20008KT 08/03 A2987 RMK A01 T00840031  RH  069%=      5-min Rain = 0
KHA2 221941Z 20010KT 09/03 A2987 RMK A01 T00860031  RH  068%=      5-min Rain = 0
KHA2 221942Z 19010KT 09/03 A2987 RMK A01 T00860029  RH  067%=      5-min Rain = 0
KHA2 221943Z 17005KT 09/03 A2987 RMK A01 T00850028  RH  068%=      5-min Rain = 0
KHA2 221944Z 16007KT 09/03 A2987 RMK A01 T00850030  RH  068%=      5-min Rain = 0
KHA2 221945Z 17008KT 09/03 A2986 RMK A01 T00890032  RH  067%=      5-min Rain = 0
KHA2 221946Z 17008KT 09/03 A2986 RMK A01 T00940032  RH  065%=      5-min Rain = 0
KHA2 221947Z 16009KT 09/03 A2986 RMK A01 T00930028  RH  064%=      5-min Rain = 0
KHA2 221948Z 17009KT 09/03 A2986 RMK A01 T00910028  RH  065%=      5-min Rain = 0
KHA2 221949Z 17007KT 09/03 A2986 RMK A01 T00900029  RH  065%=      5-min Rain = 0
KHA2 221950Z 16008KT 09/03 A2986 RMK A01 T00910029  RH  065%=      5-min Rain = 0
KHA2 221951Z 20008KT 09/03 A2986 RMK A01 T00920031  RH  065%=      5-min Rain = 0
KHA2 221952Z 16010KT 10/03 A2986 RMK A01 T00950032  RH  065%=      5-min Rain = 0
KHA2 221953Z 18010KT 10/03 A2986 RMK A01 T00950029  RH  064%=      5-min Rain = 0
KHA2 221954Z 17009KT 09/03 A2986 RMK A01 T00940030  RH  064%=      5-min Rain = 0
KHA2 221955Z 17009KT 10/03 A2986 RMK A01 T00960030  RH  063%=      5-min Rain = 0
KHA2 221956Z 15008KT 10/03 A2986 RMK A01 T00950029  RH  063%=      5-min Rain = 0
KHA2 221957Z 16007KT 10/03 A2986 RMK A01 T00960029  RH  063%=      5-min Rain = 0
KHA2 221958Z 16005KT 09/03 A2986 RMK A01 T00940030  RH  064%=      5-min Rain = 0
KHA2 221959Z 18010KT 10/03 A2985 RMK A01 T00960031  RH  064%=      5-min Rain = 0
KHA2 222000Z 18010KT 10/03 A2985 RMK A01 T00970030  RH  063%=      5-min Rain = 0
KHA2 222001Z 19009KT 10/03 A2985 RMK A01 T00990029  RH  062%=      5-min Rain = 0
KHA2 222002Z 20007KT 10/03 A2985 RMK A01 T00970027  RH  062%=      5-min Rain = 0
KHA2 222003Z 18009KT 10/03 A2985 RMK A01 T00960028  RH  062%=      5-min Rain = 0
KHA2 222004Z 19007KT 10/03 A2985 RMK A01 T01000028  RH  061%=      5-min Rain = 0
KHA2 222005Z 20007KT 10/03 A2985 RMK A01 T01000025  RH  060%=      5-min Rain = 0
KHA2 222006Z 20007KT 10/03 A2985 RMK A01 T00990025  RH  060%=      5-min Rain = 0
KHA2 222007Z 19008KT 10/03 A2985 RMK A01 T00990027  RH  061%=      5-min Rain = 0
KHA2 222008Z 17010KT 10/03 A2985 RMK A01 T01000029  RH  062%=      5-min Rain = 0
KHA2 222009Z 16009KT 10/03 A2985 RMK A01 T01010030  RH  061%=      5-min Rain = 0
KHA2 222010Z 17007KT 10/03 A2985 RMK A01 T01000030  RH  061%=      5-min Rain = 0
KHA2 222011Z 15008KT 10/03 A2985 RMK A01 T01000030  RH  062%=      5-min Rain = 0
KHA2 222012Z 14007KT 10/03 A2985 RMK A01 T01010029  RH  061%=      5-min Rain = 0
KHA2 222013Z 14007KT 10/03 A2985 RMK A01 T01000026  RH  060%=      5-min Rain = 0
KHA2 222014Z 15009KT 10/03 A2984 RMK A01 T01000026  RH  060%=      5-min Rain = 0
KHA2 222015Z 19009KT 10/03 A2984 RMK A01 T01030028  RH  060%=      5-min Rain = 0
KHA2 222016Z 18011KT 11/03 A2984 RMK A01 T01060029  RH  059%=      5-min Rain = 0
KHA2 222017Z 17010KT 10/02 A2984 RMK A01 T01030023  RH  058%=      5-min Rain = 0
KHA2 222018Z 18009KT 10/03 A2984 RMK A01 T01020025  RH  059%=      5-min Rain = 0
KHA2 222019Z 19008KT 10/03 A2984 RMK A01 T01010026  RH  059%=      5-min Rain = 0
KHA2 222020Z 20010KT 10/03 A2984 RMK A01 T01000025  RH  060%=      5-min Rain = 0
KHA2 222021Z 19011KT 10/03 A2984 RMK A01 T01010028  RH  060%=      5-min Rain = 0
KHA2 222022Z 19011KT 10/03 A2984 RMK A01 T01030028  RH  059%=      5-min Rain = 0
KHA2 222023Z 19010KT 10/03 A2984 RMK A01 T01030027  RH  059%=      5-min Rain = 0
KHA2 222024Z 19006KT 10/03 A2984 RMK A01 T01030025  RH  059%=      5-min Rain = 0
KHA2 222025Z 18010KT 10/03 A2984 RMK A01 T01040027  RH  059%=      5-min Rain = 0
KHA2 222026Z 19008KT 11/03 A2984 RMK A01 T01110030  RH  058%=      5-min Rain = 0
KHA2 222027Z 17011KT 11/02 A2984 RMK A01 T01080024  RH  056%=      5-min Rain = 0
KHA2 222028Z 18009KT 10/02 A2984 RMK A01 T01040024  RH  058%=      5-min Rain = 0
KHA2 222029Z 18012KT 10/03 A2984 RMK A01 T01040027  RH  059%=      5-min Rain = 0
KHA2 222030Z 18009KT 10/03 A2984 RMK A01 T01040026  RH  058%=      5-min Rain = 0
KHA2 222031Z 19007KT 10/02 A2983 RMK A01 T01020023  RH  058%=      5-min Rain = 0
KHA2 222032Z 18008KT 10/02 A2983 RMK A01 T01010023  RH  059%=      5-min Rain = 0
KHA2 222033Z 17009KT 10/03 A2983 RMK A01 T01010025  RH  059%=      5-min Rain = 0
KHA2 222034Z 18011KT 11/03 A2983 RMK A01 T01050027  RH  059%=      5-min Rain = 0
KHA2 222035Z 17008KT 11/03 A2983 RMK A01 T01060027  RH  058%=      5-min Rain = 0
KHA2 222036Z 17007KT 11/03 A2983 RMK A01 T01070026  RH  058%=      5-min Rain = 0
KHA2 222037Z 16009KT 11/03 A2983 RMK A01 T01070027  RH  058%=      5-min Rain = 0
KHA2 222038Z 17008KT 11/03 A2983 RMK A01 T01060027  RH  058%=      5-min Rain = 0
KHA2 222039Z 17008KT 11/03 A2983 RMK A01 T01080029  RH  058%=      5-min Rain = 0
KHA2 222040Z 13007KT 11/03 A2983 RMK A01 T01140031  RH  057%=      5-min Rain = 0
KHA2 222041Z 15008KT 12/03 A2983 RMK A01 T01160030  RH  056%=      5-min Rain = 0
KHA2 222042Z 16011KT 11/03 A2983 RMK A01 T01140028  RH  055%=      5-min Rain = 0
KHA2 222043Z 17011KT 11/03 A2983 RMK A01 T01140028  RH  055%=      5-min Rain = 0
KHA2 222044Z 18009KT 12/03 A2983 RMK A01 T01150025  RH  054%=      5-min Rain = 0
KHA2 222045Z 17010G18KT 11/02 A2982 RMK A01 T01110024  RH  055%=      5-min Rain = 0
KHA2 222046Z 16011KT 11/03 A2982 RMK A01 T01120027  RH  055%=      5-min Rain = 0
KHA2 222047Z 18010KT 11/03 A2982 RMK A01 T01140026  RH  055%=      5-min Rain = 0
KHA2 222048Z 19011KT 11/03 A2982 RMK A01 T01140025  RH  054%=      5-min Rain = 0
KHA2 222049Z 17013KT 12/03 A2982 RMK A01 T01160027  RH  054%=      5-min Rain = 0
KHA2 222050Z 17010KT 12/03 A2982 RMK A01 T01160026  RH  054%=      5-min Rain = 0
KHA2 222051Z 18012KT 12/03 A2982 RMK A01 T01150026  RH  054%=      5-min Rain = 0
KHA2 222052Z 18011KT 12/03 A2982 RMK A01 T01150026  RH  054%=      5-min Rain = 0
KHA2 222053Z 17008KT 11/03 A2982 RMK A01 T01130025  RH  055%=      5-min Rain = 0
KHA2 222054Z 17011KT 11/03 A2982 RMK A01 T01110025  RH  056%=      5-min Rain = 0
KHA2 222055Z 17010KT 11/03 A2982 RMK A01 T01100025  RH  056%=      5-min Rain = 0
KHA2 222056Z 18008KT 11/03 A2982 RMK A01 T01100025  RH  056%=      5-min Rain = 0
KHA2 222057Z 16010KT 11/03 A2982 RMK A01 T01120026  RH  056%=      5-min Rain = 0
KHA2 222058Z 16008KT 12/03 A2982 RMK A01 T01160026  RH  054%=      5-min Rain = 0
KHA2 222059Z 16008KT 12/03 A2982 RMK A01 T01190026  RH  053%=      5-min Rain = 0
KHA2 222100Z 18008KT 12/02 A2982 RMK A01 T01200024  RH  052%=      5-min Rain = 0
KHA2 222101Z 17010KT 12/02 A2982 RMK A01 T01180024  RH  052%=      5-min Rain = 0
KHA2 222102Z 17010KT 12/02 A2982 RMK A01 T01170024  RH  053%=      5-min Rain = 0
KHA2 222103Z 16010KT 12/02 A2982 RMK A01 T01150024  RH  054%=      5-min Rain = 0
KHA2 222104Z 14011KT 12/02 A2982 RMK A01 T01160024  RH  053%=      5-min Rain = 0
KHA2 222105Z 15010KT 11/02 A2982 RMK A01 T01140022  RH  053%=      5-min Rain = 0
KHA2 222106Z 17009KT 12/02 A2982 RMK A01 T01160023  RH  053%=      5-min Rain = 0
KHA2 222107Z 17009KT 12/02 A2981 RMK A01 T01170024  RH  053%=      5-min Rain = 0
KHA2 222108Z 17009KT 12/03 A2981 RMK A01 T01180025  RH  053%=      5-min Rain = 0
KHA2 222109Z 14009KT 12/03 A2981 RMK A01 T01210026  RH  052%=      5-min Rain = 0
KHA2 222110Z 16010KT 12/03 A2981 RMK A01 T01210025  RH  052%=      5-min Rain = 0
KHA2 222111Z 16006KT 12/03 A2981 RMK A01 T01210025  RH  052%=      5-min Rain = 0
KHA2 222112Z 14011KT 12/02 A2981 RMK A01 T01220024  RH  051%=      5-min Rain = 0
KHA2 222113Z 17011KT 12/02 A2981 RMK A01 T01220022  RH  050%=      5-min Rain = 0
KHA2 222114Z 17010KT 12/02 A2981 RMK A01 T01210020  RH  050%=      5-min Rain = 0
KHA2 222115Z 17011KT 12/02 A2981 RMK A01 T01180018  RH  050%=      5-min Rain = 0
KHA2 222116Z 17011KT 12/02 A2981 RMK A01 T01180020  RH  051%=      5-min Rain = 0
KHA2 222117Z 16010KT 12/02 A2981 RMK A01 T01180021  RH  051%=      5-min Rain = 0
KHA2 222118Z 15010KT 12/02 A2981 RMK A01 T01170022  RH  052%=      5-min Rain = 0
KHA2 222119Z 15008KT 12/02 A2981 RMK A01 T01160022  RH  052%=      5-min Rain = 0
KHA2 222120Z 14009KT 12/02 A2981 RMK A01 T01160023  RH  053%=      5-min Rain = 0
KHA2 222121Z 16011KT 12/02 A2981 RMK A01 T01160023  RH  053%=      5-min Rain = 0
KHA2 222122Z 14009KT 12/02 A2981 RMK A01 T01190023  RH  052%=      5-min Rain = 0
KHA2 222123Z 16010KT 12/02 A2981 RMK A01 T01210021  RH  050%=      5-min Rain = 0
KHA2 222124Z 16008G14KT 12/02 A2981 RMK A01 T01200018  RH  050%=      5-min Rain = 0
KHA2 222125Z 17012KT 12/02 A2981 RMK A01 T01210020  RH  050%=      5-min Rain = 0
KHA2 222126Z 15011KT 12/02 A2981 RMK A01 T01220022  RH  050%=      5-min Rain = 0
KHA2 222127Z 13011KT 12/02 A2981 RMK A01 T01230020  RH  049%=      5-min Rain = 0
KHA2 222128Z 14009KT 12/02 A2981 RMK A01 T01200018  RH  050%=      5-min Rain = 0
KHA2 222129Z 16011KT 12/02 A2981 RMK A01 T01220022  RH  050%=      5-min Rain = 0
KHA2 222130Z 18011KT 13/02 A2981 RMK A01 T01250021  RH  049%=      5-min Rain = 0
KHA2 222131Z 17010KT 12/02 A2981 RMK A01 T01230018  RH  049%=      5-min Rain = 0
KHA2 222132Z 16012KT 12/02 A2981 RMK A01 T01220018  RH  049%=      5-min Rain = 0
KHA2 222133Z 17010KT 12/02 A2981 RMK A01 T01220019  RH  049%=      5-min Rain = 0
KHA2 222134Z 18008KT 12/02 A2981 RMK A01 T01200018  RH  049%=      5-min Rain = 0
KHA2 222135Z 17012KT 12/02 A298 RMK A01 T01210019  RH  049%=      5-min Rain = 0
KHA2 222136Z 17010KT 12/02 A298 RMK A01 T01230019  RH  049%=      5-min Rain = 0
KHA2 222137Z 17008KT 12/02 A298 RMK A01 T01210017  RH  049%=      5-min Rain = 0
KHA2 222138Z 17012KT 12/02 A298 RMK A01 T01220021  RH  050%=      5-min Rain = 0
KHA2 222139Z 17010KT 12/02 A298 RMK A01 T01230021  RH  050%=      5-min Rain = 0
KHA2 222140Z 17011KT 13/02 A298 RMK A01 T01250024  RH  050%=      5-min Rain = 0
KHA2 222141Z 14008KT 12/02 A298 RMK A01 T01240024  RH  050%=      5-min Rain = 0
KHA2 222142Z 14007KT 12/02 A298 RMK A01 T01240023  RH  050%=      5-min Rain = 0
KHA2 222143Z 14011KT 12/02 A298 RMK A01 T01230021  RH  050%=      5-min Rain = 0
KHA2 222144Z 16010KT 13/02 A298 RMK A01 T01260019  RH  048%=      5-min Rain = 0
KHA2 222145Z 16009KT 13/02 A298 RMK A01 T01300021  RH  048%=      5-min Rain = 0
KHA2 222146Z 16008KT 13/02 A298 RMK A01 T01270016  RH  047%=      5-min Rain = 0
KHA2 222147Z 15011KT 13/02 A298 RMK A01 T01260017  RH  047%=      5-min Rain = 0
KHA2 222148Z 14008KT 13/02 A298 RMK A01 T01260019  RH  048%=      5-min Rain = 0
KHA2 222149Z 16011KT 13/02 A298 RMK A01 T01260019  RH  048%=      5-min Rain = 0
KHA2 222150Z 15010KT 13/02 A298 RMK A01 T01260015  RH  046%=      5-min Rain = 0
KHA2 222151Z 14010KT 13/01 A298 RMK A01 T01260014  RH  046%=      5-min Rain = 0
KHA2 222152Z 15010KT 13/02 A298 RMK A01 T01270015  RH  046%=      5-min Rain = 0
KHA2 222153Z 15010KT 13/01 A298 RMK A01 T01260014  RH  046%=      5-min Rain = 0
KHA2 222154Z 14008KT 13/01 A298 RMK A01 T01260014  RH  046%=      5-min Rain = 0
KHA2 222155Z 16010KT 13/01 A298 RMK A01 T01280014  RH  046%=      5-min Rain = 0
KHA2 222156Z 16011KT 13/01 A298 RMK A01 T01290014  RH  045%=      5-min Rain = 0
KHA2 222157Z 15010KT 13/01 A298 RMK A01 T01280013  RH  045%=      5-min Rain = 0
KHA2 222158Z 14010KT 13/02 A298 RMK A01 T01280016  RH  046%=      5-min Rain = 0
KHA2 222159Z 13007KT 13/02 A298 RMK A01 T01270016  RH  047%=      5-min Rain = 0
KHA2 222200Z 15011KT 13/02 A298 RMK A01 T01270017  RH  047%=      5-min Rain = 0
KHA2 222201Z 15011KT 13/02 A298 RMK A01 T01300019  RH  047%=      5-min Rain = 0
KHA2 222202Z 13012KT 13/02 A298 RMK A01 T01310017  RH  046%=      5-min Rain = 0
KHA2 222203Z 13010KT 13/01 A298 RMK A01 T01290013  RH  045%=      5-min Rain = 0
KHA2 222204Z 14011KT 13/01 A298 RMK A01 T01290014  RH  045%=      5-min Rain = 0
KHA2 222205Z 15012KT 13/01 A298 RMK A01 T01290013  RH  045%=      5-min Rain = 0
KHA2 222206Z 16012KT 13/02 A298 RMK A01 T01280016  RH  046%=      5-min Rain = 0
KHA2 222207Z 16008KT 13/02 A298 RMK A01 T01270017  RH  047%=      5-min Rain = 0
KHA2 222208Z 16007KT 13/02 A298 RMK A01 T01290018  RH  047%=      5-min Rain = 0
KHA2 222209Z 13012KT 13/02 A298 RMK A01 T01310019  RH  047%=      5-min Rain = 0
KHA2 222210Z 13012KT 13/02 A298 RMK A01 T01300017  RH  046%=      5-min Rain = 0
KHA2 222211Z 13012KT 13/02 A298 RMK A01 T01300016  RH  046%=      5-min Rain = 0
KHA2 222212Z 13012KT 13/02 A298 RMK A01 T01290015  RH  046%=      5-min Rain = 0
KHA2 222213Z 13010KT 13/02 A298 RMK A01 T01300016  RH  046%=      5-min Rain = 0
KHA2 222214Z 14012KT 13/02 A298 RMK A01 T01290015  RH  046%=      5-min Rain = 0
KHA2 222215Z 14011KT 13/01 A298 RMK A01 T01280014  RH  046%=      5-min Rain = 0
KHA2 222216Z 14012KT 13/02 A298 RMK A01 T01280015  RH  046%=      5-min Rain = 0
KHA2 222217Z 15011KT 13/01 A298 RMK A01 T01310011  RH  044%=      5-min Rain = 0
KHA2 222218Z 15012KT 13/01 A298 RMK A01 T01320011  RH  044%=      5-min Rain = 0
KHA2 222219Z 15011KT 13/02 A298 RMK A01 T01340017  RH  045%=      5-min Rain = 0
KHA2 222220Z 15012KT 13/02 A298 RMK A01 T01330017  RH  045%=      5-min Rain = 0
KHA2 222221Z 15010KT 13/02 A298 RMK A01 T01300017  RH  046%=      5-min Rain = 0
KHA2 222222Z 14013KT 13/02 A298 RMK A01 T01300020  RH  047%=      5-min Rain = 0
KHA2 222223Z 15012KT 13/02 A298 RMK A01 T01330021  RH  046%=      5-min Rain = 0
KHA2 222224Z 15012KT 13/02 A298 RMK A01 T01330021  RH  047%=      5-min Rain = 0
KHA2 222225Z 14013KT 13/02 A298 RMK A01 T01320023  RH  047%=      5-min Rain = 0
KHA2 222226Z 14011G16KT 13/02 A298 RMK A01 T01320023  RH  048%=      5-min Rain = 0
KHA2 222227Z 14012KT 13/02 A298 RMK A01 T01310023  RH  048%=      5-min Rain = 0
KHA2 222228Z 14014KT 13/02 A298 RMK A01 T01310021  RH  047%=      5-min Rain = 0
KHA2 222229Z 13014KT 13/02 A298 RMK A01 T01310019  RH  047%=      5-min Rain = 0
KHA2 222230Z 15013KT 13/02 A298 RMK A01 T01310019  RH  047%=      5-min Rain = 0
KHA2 222231Z 16013KT 13/02 A298 RMK A01 T01330018  RH  046%=      5-min Rain = 0
KHA2 222232Z 15012KT 13/02 A298 RMK A01 T01310017  RH  046%=      5-min Rain = 0
KHA2 222233Z 15015KT 13/02 A298 RMK A01 T01310018  RH  046%=      5-min Rain = 0
KHA2 222234Z 14013KT 13/02 A298 RMK A01 T01310019  RH  047%=      5-min Rain = 0
KHA2 222235Z 14012KT 13/02 A298 RMK A01 T01310019  RH  047%=      5-min Rain = 0
KHA2 222236Z 14013KT 13/02 A298 RMK A01 T01290019  RH  047%=      5-min Rain = 0
KHA2 222237Z 14012KT 13/02 A298 RMK A01 T01290019  RH  047%=      5-min Rain = 0
KHA2 222238Z 15014KT 13/02 A298 RMK A01 T01280018  RH  047%=      5-min Rain = 0
KHA2 222239Z 15012KT 13/02 A298 RMK A01 T01290020  RH  047%=      5-min Rain = 0
KHA2 222240Z 14011KT 13/02 A298 RMK A01 T01290020  RH  048%=      5-min Rain = 0
KHA2 222241Z 14011KT 13/02 A298 RMK A01 T01290021  RH  048%=      5-min Rain = 0
KHA2 222242Z 15014KT 13/02 A298 RMK A01 T01320021  RH  047%=      5-min Rain = 0
KHA2 222243Z 15014KT 13/02 A298 RMK A01 T01320018  RH  046%=      5-min Rain = 0
KHA2 222244Z 15013KT 13/02 A298 RMK A01 T01320016  RH  045%=      5-min Rain = 0
KHA2 222245Z 16012KT 13/02 A298 RMK A01 T01310015  RH  045%=      5-min Rain = 0
KHA2 222246Z 15016KT 13/02 A298 RMK A01 T01300016  RH  046%=      5-min Rain = 0
KHA2 222247Z 16014KT 13/02 A298 RMK A01 T01290016  RH  046%=      5-min Rain = 0
KHA2 222248Z 15013KT 13/02 A298 RMK A01 T01280017  RH  046%=      5-min Rain = 0
KHA2 222249Z 15014KT 13/02 A298 RMK A01 T01280017  RH  047%=      5-min Rain = 0
KHA2 222250Z 14014KT 13/02 A298 RMK A01 T01290018  RH  047%=      5-min Rain = 0
KHA2 222251Z 14016KT 13/02 A2979 RMK A01 T01290019  RH  047%=      5-min Rain = 0
KHA2 222252Z 12016KT 13/02 A2979 RMK A01 T01280019  RH  047%=      5-min Rain = 0
KHA2 222253Z 13014KT 13/02 A2979 RMK A01 T01270019  RH  048%=      5-min Rain = 0
KHA2 222254Z 15015KT 13/02 A2979 RMK A01 T01280020  RH  048%=      5-min Rain = 0
KHA2 222255Z 15013KT 13/02 A2979 RMK A01 T01280018  RH  047%=      5-min Rain = 0
KHA2 222256Z 14014KT 13/02 A2979 RMK A01 T01280018  RH  047%=      5-min Rain = 0
KHA2 222257Z 14014KT 13/02 A2979 RMK A01 T01280018  RH  047%=      5-min Rain = 0
KHA2 222258Z 14013KT 13/02 A2979 RMK A01 T01280018  RH  047%=      5-min Rain = 0
KHA2 222259Z 12017KT 13/02 A2979 RMK A01 T01280022  RH  049%=      5-min Rain = 0
KHA2 222300Z 11015KT 12/03 A2979 RMK A01 T01200031  RH  054%=      5-min Rain = 0
KHA2 222301Z 11017KT 12/03 A2979 RMK A01 T01150034  RH  057%=      5-min Rain = 0
KHA2 222302Z 10017KT 11/04 A2979 RMK A01 T01110035  RH  059%=      5-min Rain = 0
KHA2 222303Z 10017KT 11/04 A2979 RMK A01 T01080036  RH  061%=      5-min Rain = 0
KHA2 222304Z 11017KT 11/04 A2979 RMK A01 T01060036  RH  062%=      5-min Rain = 0
KHA2 222305Z 10016KT 11/04 A2979 RMK A01 T01050037  RH  063%=      5-min Rain = 0
KHA2 222306Z 10015KT 10/04 A2979 RMK A01 T01020038  RH  064%=      5-min Rain = 0
KHA2 222307Z 10016KT 10/04 A2979 RMK A01 T01020038  RH  064%=      5-min Rain = 0
KHA2 222308Z 10016KT 10/04 A298 RMK A01 T01000037  RH  065%=      5-min Rain = 0
KHA2 222309Z 10015KT 10/04 A298 RMK A01 T00980038  RH  066%=      5-min Rain = 0
KHA2 222310Z 10017KT 10/04 A298 RMK A01 T00980038  RH  066%=      5-min Rain = 0
KHA2 222311Z 10016KT 10/04 A298 RMK A01 T00960038  RH  067%=      5-min Rain = 0
KHA2 222312Z 10014KT 10/04 A298 RMK A01 T00960039  RH  068%=      5-min Rain = 0
KHA2 222313Z 10018KT 10/04 A2979 RMK A01 T00960039  RH  067%=      5-min Rain = 0
KHA2 222314Z 10017KT 10/04 A2979 RMK A01 T00950038  RH  067%=      5-min Rain = 0
KHA2 222315Z 10016KT 09/04 A298 RMK A01 T00930037  RH  068%=      5-min Rain = 0
KHA2 222316Z 11016KT 09/04 A2979 RMK A01 T00920038  RH  069%=      5-min Rain = 0
KHA2 222317Z 10017KT 09/04 A2979 RMK A01 T00910038  RH  069%=      5-min Rain = 0
KHA2 222318Z 10017KT 09/04 A2979 RMK A01 T00900038  RH  070%=      5-min Rain = 0
KHA2 222319Z 11016KT 09/04 A2979 RMK A01 T00900038  RH  070%=      5-min Rain = 0
KHA2 222320Z 11017KT 09/04 A2979 RMK A01 T00890037  RH  070%=      5-min Rain = 0
KHA2 222321Z 11016KT 09/04 A2979 RMK A01 T00880037  RH  070%=      5-min Rain = 0
KHA2 222322Z 11017KT 09/04 A2979 RMK A01 T00880038  RH  071%=      5-min Rain = 0
KHA2 222323Z 10016KT 09/04 A2979 RMK A01 T00870037  RH  071%=      5-min Rain = 0
KHA2 222324Z 11017KT 09/04 A2979 RMK A01 T00870038  RH  071%=      5-min Rain = 0
KHA2 222325Z 11018KT 09/04 A2979 RMK A01 T00860038  RH  071%=      5-min Rain = 0
KHA2 222326Z 10017KT 09/04 A2979 RMK A01 T00860038  RH  072%=      5-min Rain = 0
KHA2 222327Z 11017KT 09/04 A2979 RMK A01 T00850038  RH  072%=      5-min Rain = 0
KHA2 222328Z 11016KT 09/04 A2979 RMK A01 T00850038  RH  072%=      5-min Rain = 0
KHA2 222329Z 11017KT 09/04 A2979 RMK A01 T00850037  RH  072%=      5-min Rain = 0
KHA2 222330Z 11017KT 09/04 A2979 RMK A01 T00850037  RH  072%=      5-min Rain = 0
KHA2 222331Z 11018KT 08/04 A2979 RMK A01 T00840037  RH  072%=      5-min Rain = 0
KHA2 222332Z 11019KT 08/04 A2979 RMK A01 T00830037  RH  073%=      5-min Rain = 0
KHA2 222333Z 11018KT 08/04 A2979 RMK A01 T00820037  RH  073%=      5-min Rain = 0
KHA2 222334Z 11018KT 08/04 A2979 RMK A01 T00810037  RH  074%=      5-min Rain = 0
KHA2 222335Z 11018KT 08/04 A2979 RMK A01 T00810037  RH  074%=      5-min Rain = 0
KHA2 222336Z 11015KT 08/04 A2979 RMK A01 T00810037  RH  074%=      5-min Rain = 0
KHA2 222337Z 11018KT 08/04 A2979 RMK A01 T00810037  RH  074%=      5-min Rain = 0
KHA2 222338Z 11017KT 08/04 A2979 RMK A01 T00810037  RH  074%=      5-min Rain = 0
KHA2 222339Z 11016KT 08/04 A2979 RMK A01 T00810037  RH  074%=      5-min Rain = 0
KHA2 222340Z 11017KT 08/04 A2979 RMK A01 T00800036  RH  074%=      5-min Rain = 0
KHA2 222341Z 11017KT 08/04 A2979 RMK A01 T00800037  RH  074%=      5-min Rain = 0
KHA2 222342Z 11018KT 08/04 A2979 RMK A01 T00800037  RH  074%=      5-min Rain = 0
KHA2 222343Z 11019KT 08/04 A2979 RMK A01 T00790037  RH  074%=      5-min Rain = 0
KHA2 222344Z 11019KT 08/04 A2979 RMK A01 T00780036  RH  075%=      5-min Rain = 0
KHA2 222345Z 11018KT 08/04 A2979 RMK A01 T00780036  RH  075%=      5-min Rain = 0
KHA2 222346Z 11018KT 08/04 A2979 RMK A01 T00780036  RH  075%=      5-min Rain = 0
KHA2 222347Z 10018KT 08/04 A2979 RMK A01 T00780036  RH  075%=      5-min Rain = 0
KHA2 222348Z 11018KT 08/04 A2979 RMK A01 T00770036  RH  075%=      5-min Rain = 0
KHA2 222349Z 10016KT 08/04 A2979 RMK A01 T00770036  RH  075%=      5-min Rain = 0
KHA2 222350Z 11017KT 08/04 A2979 RMK A01 T00770036  RH  075%=      5-min Rain = 0
KHA2 222351Z 11016KT 08/04 A2979 RMK A01 T00770035  RH  075%=      5-min Rain = 0
KHA2 222352Z 11017KT 08/03 A2979 RMK A01 T00760034  RH  075%=      5-min Rain = 0
KHA2 222353Z 11015KT 08/03 A2979 RMK A01 T00750034  RH  075%=      5-min Rain = 0
KHA2 222354Z 11018KT 08/03 A2979 RMK A01 T00760034  RH  075%=      5-min Rain = 0
KHA2 222355Z 12016KT 08/03 A2979 RMK A01 T00760034  RH  075%=      5-min Rain = 0
KHA2 222356Z 12014KT 08/03 A2979 RMK A01 T00770034  RH  074%=      5-min Rain = 0
KHA2 222357Z 12015KT 08/04 A2979 RMK A01 T00780035  RH  074%=      5-min Rain = 0
KHA2 222358Z 13017KT 08/04 A2979 RMK A01 T00790035  RH  074%=      5-min Rain = 0
KHA2 222359Z 13018KT 08/04 A2979 RMK A01 T00790035  RH  074%=      5-min Rain = 0
KHA2 230000Z 13019KT 08/04 A2979 RMK A01 T00790035  RH  074%=      5-min Rain = 0
KHA2 230001Z 12018KT 08/03 A2979 RMK A01 T00780034  RH  074%=      5-min Rain = 0
KHA2 230002Z 13018KT 08/03 A2979 RMK A01 T00770034  RH  074%=      5-min Rain = 0
KHA2 230003Z 13017KT 08/03 A2979 RMK A01 T00760034  RH  074%=      5-min Rain = 0
KHA2 230004Z 13017KT 08/03 A2979 RMK A01 T00760034  RH  075%=      5-min Rain = 0
KHA2 230005Z 13016KT 08/03 A298 RMK A01 T00750034  RH  075%=      5-min Rain = 0
KHA2 230006Z 13017KT 07/03 A298 RMK A01 T00740034  RH  075%=      5-min Rain = 0
KHA2 230007Z 13018KT 07/03 A298 RMK A01 T00730034  RH  076%=      5-min Rain = 0
KHA2 230008Z 14017KT 07/03 A298 RMK A01 T00710033  RH  077%=      5-min Rain = 0
KHA2 230009Z 13016KT 07/03 A298 RMK A01 T00710033  RH  077%=      5-min Rain = 0
KHA2 230010Z 13016KT 07/03 A298 RMK A01 T00700034  RH  078%=      5-min Rain = 0
KHA2 230011Z 14017KT 07/03 A298 RMK A01 T00690033  RH  078%=      5-min Rain = 0
KHA2 230012Z 14017KT 07/03 A298 RMK A01 T00680033  RH  078%=      5-min Rain = 0
KHA2 230013Z 14015KT 07/03 A298 RMK A01 T00680033  RH  078%=      5-min Rain = 0
KHA2 230014Z 14016KT 07/03 A298 RMK A01 T00660032  RH  079%=      5-min Rain = 0
KHA2 230015Z 13017KT 07/03 A298 RMK A01 T00650031  RH  079%=      5-min Rain = 0
KHA2 230016Z 13019KT 06/03 A298 RMK A01 T00640032  RH  080%=      5-min Rain = 0
KHA2 230017Z 13018KT 06/03 A298 RMK A01 T00620032  RH  081%=      5-min Rain = 0
KHA2 230018Z 13016KT 06/03 A298 RMK A01 T00610031  RH  081%=      5-min Rain = 0
KHA2 230019Z 13019KT 06/03 A298 RMK A01 T00600031  RH  082%=      5-min Rain = 0
KHA2 230020Z 13018KT 06/03 A298 RMK A01 T00600032  RH  082%=      5-min Rain = 0
KHA2 230021Z 13017KT 06/03 A2981 RMK A01 T00590032  RH  083%=      5-min Rain = 0
KHA2 230022Z 13017KT 06/03 A2981 RMK A01 T00580031  RH  083%=      5-min Rain = 0
KHA2 230023Z 13018KT 06/03 A2981 RMK A01 T00580031  RH  083%=      5-min Rain = 0
KHA2 230024Z 12016KT 06/03 A2981 RMK A01 T00570031  RH  083%=      5-min Rain = 0
KHA2 230025Z 13017KT 06/03 A2981 RMK A01 T00560031  RH  084%=      5-min Rain = 0
KHA2 230026Z 13014KT 06/03 A2981 RMK A01 T00550030  RH  084%=      5-min Rain = 0
KHA2 230027Z 13016KT 05/03 A2981 RMK A01 T00540030  RH  084%=      5-min Rain = 0
KHA2 230028Z 13016KT 05/03 A2981 RMK A01 T00530029  RH  085%=      5-min Rain = 0
KHA2 230029Z 13016KT 05/03 A2981 RMK A01 T00520029  RH  085%=      5-min Rain = 0
KHA2 230030Z 13016KT 05/03 A2981 RMK A01 T00520029  RH  086%=      5-min Rain = 0
KHA2 230031Z 13015KT 05/03 A2981 RMK A01 T00510029  RH  086%=      5-min Rain = 0
KHA2 230032Z 13015KT 05/03 A2981 RMK A01 T00500029  RH  086%=      5-min Rain = 0
KHA2 230033Z 13015KT 05/03 A2981 RMK A01 T00490028  RH  086%=      5-min Rain = 0
KHA2 230034Z 13017KT 05/03 A2981 RMK A01 T00480028  RH  087%=      5-min Rain = 0
KHA2 230035Z 13015KT 05/03 A2981 RMK A01 T00480028  RH  087%=      5-min Rain = 0
KHA2 230036Z 13017KT 05/03 A2981 RMK A01 T00470028  RH  087%=      5-min Rain = 0
KHA2 230037Z 13016KT 05/03 A2981 RMK A01 T00460028  RH  088%=      5-min Rain = 0
KHA2 230038Z 13016KT 05/03 A2981 RMK A01 T00460028  RH  088%=      5-min Rain = 0
KHA2 230039Z 13017KT 05/03 A2981 RMK A01 T00450027  RH  088%=      5-min Rain = 0
KHA2 230040Z 13016KT 05/03 A2981 RMK A01 T00450028  RH  089%=      5-min Rain = 0
KHA2 230041Z 13015KT 04/03 A2981 RMK A01 T00440027  RH  089%=      5-min Rain = 0
KHA2 230042Z 13016KT 04/03 A2981 RMK A01 T00430026  RH  089%=      5-min Rain = 0
KHA2 230043Z 13015KT 04/03 A2981 RMK A01 T00430026  RH  089%=      5-min Rain = 0
KHA2 230044Z 13016KT 04/03 A2981 RMK A01 T00430026  RH  089%=      5-min Rain = 0
KHA2 230045Z 13015KT 04/03 A2981 RMK A01 T00430027  RH  089%=      5-min Rain = 0
KHA2 230046Z 12014KT 04/03 A298 RMK A01 T00420026  RH  089%=      5-min Rain = 0
KHA2 230047Z 13015KT 04/03 A298 RMK A01 T00410025  RH  089%=      5-min Rain = 0
KHA2 230048Z 13015KT 04/03 A2981 RMK A01 T00410025  RH  089%=      5-min Rain = 0
KHA2 230049Z 13016KT 04/03 A2981 RMK A01 T00400025  RH  090%=      5-min Rain = 0
KHA2 230050Z 13016KT 04/03 A2981 RMK A01 T00400026  RH  090%=      5-min Rain = 0
KHA2 230051Z 13014KT 04/03 A2981 RMK A01 T00410026  RH  090%=      5-min Rain = 0
KHA2 230052Z 13013KT 04/03 A2981 RMK A01 T00410026  RH  090%=      5-min Rain = 0
KHA2 230053Z 13013KT 04/03 A2981 RMK A01 T00400025  RH  090%=      5-min Rain = 0
KHA2 230054Z 13014KT 04/02 A2981 RMK A01 T00390024  RH  090%=      5-min Rain = 0
KHA2 230055Z 13016KT 04/03 A2981 RMK A01 T00390025  RH  091%=      5-min Rain = 0
KHA2 230056Z 13016KT 04/03 A2981 RMK A01 T00390026  RH  091%=      5-min Rain = 0
KHA2 230057Z 12014KT 04/03 A2981 RMK A01 T00390026  RH  091%=      5-min Rain = 0
KHA2 230058Z 13014KT 04/03 A2981 RMK A01 T00390025  RH  091%=      5-min Rain = 0
KHA2 230059Z 13014KT 04/03 A2981 RMK A01 T00390025  RH  091%=      5-min Rain = 0
KHA2 230100Z 13014KT 04/03 A2981 RMK A01 T00390025  RH  091%=      5-min Rain = 0
KHA2 230101Z 12013KT 04/03 A2981 RMK A01 T00390026  RH  091%=      5-min Rain = 0
KHA2 230102Z 12013KT 04/03 A2981 RMK A01 T00390026  RH  091%=      5-min Rain = 0
KHA2 230103Z 12013KT 04/03 A2981 RMK A01 T00390026  RH  091%=      5-min Rain = 0
KHA2 230104Z 12013KT 04/03 A2981 RMK A01 T00400026  RH  091%=      5-min Rain = 0
KHA2 230105Z 12014KT 04/03 A2981 RMK A01 T00400026  RH  091%=      5-min Rain = 0
KHA2 230106Z 12014KT 04/03 A2981 RMK A01 T00400026  RH  091%=      5-min Rain = 0
KHA2 230107Z 12015KT 04/03 A2981 RMK A01 T00400026  RH  091%=      5-min Rain = 0
KHA2 230108Z 12015KT 04/03 A2981 RMK A01 T00400026  RH  091%=      5-min Rain = 0
KHA2 230109Z 11015KT 04/03 A2981 RMK A01 T00400026  RH  091%=      5-min Rain = 0
KHA2 230110Z 12013KT 04/03 A2981 RMK A01 T00410027  RH  091%=      5-min Rain = 0
KHA2 230111Z 11015KT 04/03 A2981 RMK A01 T00410027  RH  091%=      5-min Rain = 0
KHA2 230112Z 12015KT 04/03 A298 RMK A01 T00420028  RH  091%=      5-min Rain = 0
KHA2 230113Z 12016KT 04/03 A298 RMK A01 T00430029  RH  091%=      5-min Rain = 0
KHA2 230114Z 12016KT 04/03 A298 RMK A01 T00430029  RH  090%=      5-min Rain = 0
KHA2 230115Z 12019KT 04/03 A298 RMK A01 T00440029  RH  090%=      5-min Rain = 0
KHA2 230116Z 12016KT 04/03 A298 RMK A01 T00440030  RH  090%=      5-min Rain = 0
KHA2 230117Z 12017KT 05/03 A298 RMK A01 T00450029  RH  090%=      5-min Rain = 0
KHA2 230118Z 12016KT 05/03 A298 RMK A01 T00450030  RH  090%=      5-min Rain = 0
KHA2 230119Z 12017KT 05/03 A298 RMK A01 T00450030  RH  090%=      5-min Rain = 0
KHA2 230120Z 12015KT 05/03 A298 RMK A01 T00450029  RH  090%=      5-min Rain = 0
KHA2 230121Z 12016KT 05/03 A298 RMK A01 T00450029  RH  089%=      5-min Rain = 0
KHA2 230122Z 12016KT 05/03 A298 RMK A01 T00450029  RH  089%=      5-min Rain = 0
KHA2 230123Z 12016KT 05/03 A298 RMK A01 T00460030  RH  089%=      5-min Rain = 0
KHA2 230124Z 12016KT 05/03 A298 RMK A01 T00460029  RH  089%=      5-min Rain = 0
KHA2 230125Z 12016KT 05/03 A298 RMK A01 T00460029  RH  089%=      5-min Rain = 0
KHA2 230126Z 12015KT 05/03 A298 RMK A01 T00460029  RH  089%=      5-min Rain = 0
KHA2 230127Z 12018KT 05/03 A298 RMK A01 T00460029  RH  089%=      5-min Rain = 0
KHA2 230128Z 12016KT 05/03 A298 RMK A01 T00460029  RH  089%=      5-min Rain = 0
KHA2 230129Z 12013KT 05/03 A298 RMK A01 T00460029  RH  089%=      5-min Rain = 0
KHA2 230130Z 11016KT 05/03 A298 RMK A01 T00460029  RH  089%=      5-min Rain = 0
KHA2 230131Z 11016KT 05/03 A298 RMK A01 T00460029  RH  089%=      5-min Rain = 0
KHA2 230132Z 11014KT 05/03 A298 RMK A01 T00460029  RH  089%=      5-min Rain = 0
KHA2 230133Z 12014KT 05/03 A298 RMK A01 T00460029  RH  089%=      5-min Rain = 0
KHA2 230134Z 11013KT 05/03 A298 RMK A01 T00460029  RH  089%=      5-min Rain = 0
KHA2 230135Z 11014KT 05/03 A298 RMK A01 T00460028  RH  089%=      5-min Rain = 0
KHA2 230136Z 11015KT 05/03 A298 RMK A01 T00460029  RH  089%=      5-min Rain = 0
KHA2 230137Z 12014KT 05/03 A298 RMK A01 T00460029  RH  089%=      5-min Rain = 0
KHA2 230138Z 12015KT 05/03 A298 RMK A01 T00460029  RH  089%=      5-min Rain = 0
KHA2 230139Z 12015KT 05/03 A2979 RMK A01 T00460029  RH  089%=      5-min Rain = 0
KHA2 230140Z 11014KT 05/03 A2979 RMK A01 T00460029  RH  089%=      5-min Rain = 0
KHA2 230141Z 11015KT 05/03 A2979 RMK A01 T00460029  RH  089%=      5-min Rain = 0
KHA2 230142Z 11015KT 05/03 A2979 RMK A01 T00460029  RH  089%=      5-min Rain = 0
KHA2 230143Z 11015KT 05/03 A2979 RMK A01 T00460029  RH  089%=      5-min Rain = 0
KHA2 230144Z 12017KT 05/03 A2979 RMK A01 T00460029  RH  089%=      5-min Rain = 0
KHA2 230145Z 11015KT 05/03 A2979 RMK A01 T00460028  RH  089%=      5-min Rain = 0
KHA2 230146Z 11015KT 05/03 A2979 RMK A01 T00460028  RH  089%=      5-min Rain = 0
KHA2 230147Z 11017KT 05/03 A2979 RMK A01 T00460029  RH  089%=      5-min Rain = 0
KHA2 230148Z 11016KT 05/03 A2979 RMK A01 T00460029  RH  089%=      5-min Rain = 0
KHA2 230149Z 11015KT 05/03 A2979 RMK A01 T00460029  RH  089%=      5-min Rain = 0
KHA2 230150Z 12017KT 05/03 A2979 RMK A01 T00460029  RH  089%=      5-min Rain = 0
KHA2 230151Z 12016KT 05/03 A2979 RMK A01 T00460029  RH  089%=      5-min Rain = 0
KHA2 230152Z 11016KT 05/03 A2979 RMK A01 T00460029  RH  089%=      5-min Rain = 0
KHA2 230153Z 11017KT 05/03 A2979 RMK A01 T00450029  RH  089%=      5-min Rain = 0
KHA2 230154Z 12015KT 05/03 A2979 RMK A01 T00450029  RH  090%=      5-min Rain = 0
KHA2 230155Z 11016KT 05/03 A2979 RMK A01 T00450029  RH  090%=      5-min Rain = 0
KHA2 230156Z 12017KT 04/03 A2979 RMK A01 T00440029  RH  090%=      5-min Rain = 0
KHA2 230157Z 11016KT 04/03 A2979 RMK A01 T00440028  RH  090%=      5-min Rain = 0
KHA2 230158Z 11014KT 04/03 A2979 RMK A01 T00440028  RH  090%=      5-min Rain = 0
KHA2 230159Z 11012KT 04/03 A2979 RMK A01 T00440028  RH  089%=      5-min Rain = 0
KHA2 230200Z 11013KT 04/03 A2979 RMK A01 T00440028  RH  089%=      5-min Rain = 0
KHA2 230201Z 11015KT 04/03 A2979 RMK A01 T00440028  RH  089%=      5-min Rain = 0
KHA2 230202Z 11016KT 04/03 A2979 RMK A01 T00440028  RH  089%=      5-min Rain = 0
KHA2 230203Z 11014KT 04/03 A2979 RMK A01 T00440027  RH  089%=      5-min Rain = 0
KHA2 230204Z 11013KT 04/03 A2979 RMK A01 T00430027  RH  089%=      5-min Rain = 0
KHA2 230205Z 11015KT 04/03 A2979 RMK A01 T00430026  RH  089%=      5-min Rain = 0
KHA2 230206Z 11015KT 04/03 A2979 RMK A01 T00430026  RH  089%=      5-min Rain = 0
KHA2 230207Z 11015KT 04/03 A2979 RMK A01 T00430027  RH  089%=      5-min Rain = 0
KHA2 230208Z 11013KT 04/03 A2979 RMK A01 T00420027  RH  090%=      5-min Rain = 0
KHA2 230209Z 11015KT 04/03 A2979 RMK A01 T00430028  RH  090%=      5-min Rain = 0
KHA2 230210Z 12014KT 04/03 A2979 RMK A01 T00430028  RH  090%=      5-min Rain = 0
KHA2 230211Z 11014KT 04/03 A2978 RMK A01 T00430028  RH  090%=      5-min Rain = 0
KHA2 230212Z 11014KT 04/03 A2978 RMK A01 T00420028  RH  090%=      5-min Rain = 0
KHA2 230213Z 10013KT 04/03 A2978 RMK A01 T00420028  RH  090%=      5-min Rain = 0
KHA2 230214Z 12012KT 04/03 A2978 RMK A01 T00430028  RH  091%=      5-min Rain = 0
KHA2 230215Z 11013KT 04/03 A2978 RMK A01 T00420028  RH  090%=      5-min Rain = 0
KHA2 230216Z 12013KT 04/03 A2978 RMK A01 T00430028  RH  090%=      5-min Rain = 0
KHA2 230217Z 11014KT 04/03 A2978 RMK A01 T00420028  RH  090%=      5-min Rain = 0
KHA2 230218Z 11013G18KT 04/03 A2978 RMK A01 T00420028  RH  090%=      5-min Rain = 0
KHA2 230219Z 11015KT 04/03 A2978 RMK A01 T00420028  RH  091%=      5-min Rain = 0
KHA2 230220Z 11017KT 04/03 A2977 RMK A01 T00420028  RH  091%=      5-min Rain = 0
KHA2 230221Z 11014KT 04/03 A2977 RMK A01 T00410027  RH  091%=      5-min Rain = 0
KHA2 230222Z 11017KT 04/03 A2977 RMK A01 T00410028  RH  091%=      5-min Rain = 0
KHA2 230223Z 11016KT 04/03 A2977 RMK A01 T00410028  RH  091%=      5-min Rain = 0
KHA2 230224Z 12015KT 04/03 A2977 RMK A01 T00410027  RH  091%=      5-min Rain = 0
KHA2 230225Z 11013KT 04/03 A2977 RMK A01 T00410027  RH  090%=      5-min Rain = 0
KHA2 230226Z 12014G19KT 04/03 A2977 RMK A01 T00410027  RH  090%=      5-min Rain = 0
KHA2 230227Z 12016KT 04/03 A2977 RMK A01 T00410026  RH  090%=      5-min Rain = 0
KHA2 230228Z 11015KT 04/03 A2977 RMK A01 T00400026  RH  091%=      5-min Rain = 0
KHA2 230229Z 11014KT 04/03 A2977 RMK A01 T00400027  RH  091%=      5-min Rain = 0
KHA2 230230Z 11017KT 04/03 A2977 RMK A01 T00400027  RH  091%=      5-min Rain = 0
KHA2 230231Z 11016KT 04/03 A2977 RMK A01 T00400027  RH  091%=      5-min Rain = 0
KHA2 230232Z 11013KT 04/03 A2977 RMK A01 T00400027  RH  091%=      5-min Rain = 0
KHA2 230233Z 11015KT 04/03 A2977 RMK A01 T00400027  RH  091%=      5-min Rain = 0
KHA2 230234Z 11017KT 04/03 A2977 RMK A01 T00400027  RH  091%=      5-min Rain = 0
KHA2 230235Z 11017KT 04/03 A2977 RMK A01 T00400026  RH  091%=      5-min Rain = 0
KHA2 230236Z 11017KT 04/03 A2977 RMK A01 T00400026  RH  091%=      5-min Rain = 0
KHA2 230237Z 11015KT 04/03 A2977 RMK A01 T00400027  RH  091%=      5-min Rain = 0
KHA2 230238Z 11017KT 04/03 A2977 RMK A01 T00390027  RH  091%=      5-min Rain = 0
KHA2 230239Z 11017KT 04/03 A2977 RMK A01 T00390026  RH  091%=      5-min Rain = 0
KHA2 230240Z 11017KT 04/03 A2977 RMK A01 T00390026  RH  091%=      5-min Rain = 0
KHA2 230241Z 11019KT 04/03 A2977 RMK A01 T00390027  RH  091%=      5-min Rain = 0
KHA2 230242Z 11016KT 04/03 A2977 RMK A01 T00390027  RH  092%=      5-min Rain = 0
KHA2 230243Z 12015KT 04/03 A2977 RMK A01 T00390027  RH  092%=      5-min Rain = 0
KHA2 230244Z 12014KT 04/03 A2977 RMK A01 T00390028  RH  092%=      5-min Rain = 0
KHA2 230245Z 12015KT 04/03 A2977 RMK A01 T00400028  RH  092%=      5-min Rain = 0
KHA2 230246Z 12017KT 04/03 A2977 RMK A01 T00390027  RH  091%=      5-min Rain = 0
KHA2 230247Z 11016KT 04/03 A2977 RMK A01 T00390026  RH  091%=      5-min Rain = 0
KHA2 230248Z 11015KT 04/03 A2977 RMK A01 T00390026  RH  091%=      5-min Rain = 0
KHA2 230249Z 11013KT 04/03 A2977 RMK A01 T00380026  RH  092%=      5-min Rain = 0
KHA2 230250Z 11016KT 04/03 A2977 RMK A01 T00390026  RH  092%=      5-min Rain = 0
KHA2 230251Z 11016KT 04/03 A2977 RMK A01 T00380026  RH  092%=      5-min Rain = 0
KHA2 230252Z 11017KT 04/03 A2977 RMK A01 T00390027  RH  092%=      5-min Rain = 0
KHA2 230253Z 11015KT 04/03 A2977 RMK A01 T00380026  RH  092%=      5-min Rain = 0
KHA2 230254Z 12017KT 04/03 A2977 RMK A01 T00380026  RH  092%=      5-min Rain = 0
KHA2 230255Z 11017KT 04/03 A2977 RMK A01 T00390026  RH  092%=      5-min Rain = 0
KHA2 230256Z 11017KT 04/03 A2977 RMK A01 T00380026  RH  092%=      5-min Rain = 0
KHA2 230257Z 11015KT 04/03 A2977 RMK A01 T00380026  RH  092%=      5-min Rain = 0
KHA2 230258Z 11015KT 04/03 A2977 RMK A01 T00380027  RH  092%=      5-min Rain = 0
KHA2 230259Z 11015KT 04/03 A2977 RMK A01 T00390027  RH  092%=      5-min Rain = 0
KHA2 230300Z 11017KT 04/03 A2977 RMK A01 T00380026  RH  092%=      5-min Rain = 0
KHA2 230301Z 12019KT 04/03 A2977 RMK A01 T00390026  RH  092%=      5-min Rain = 0
KHA2 230302Z 12017KT 04/03 A2978 RMK A01 T00380025  RH  092%=      5-min Rain = 0
KHA2 230303Z 12017KT 04/03 A2977 RMK A01 T00370026  RH  092%=      5-min Rain = 0
KHA2 230304Z 12016KT 04/03 A2977 RMK A01 T00370026  RH  092%=      5-min Rain = 0
KHA2 230305Z 12015KT 04/03 A2977 RMK A01 T00370026  RH  092%=      5-min Rain = 0
KHA2 230306Z 12017KT 04/03 A2977 RMK A01 T00370026  RH  092%=      5-min Rain = 0
KHA2 230307Z 12017KT 04/03 A2977 RMK A01 T00380026  RH  092%=      5-min Rain = 0
KHA2 230308Z 12015KT 04/03 A2977 RMK A01 T00370026  RH  092%=      5-min Rain = 0
KHA2 230309Z 12014KT 04/03 A2977 RMK A01 T00380026  RH  092%=      5-min Rain = 0
KHA2 230310Z 12016KT 04/03 A2978 RMK A01 T00380026  RH  092%=      5-min Rain = 0
KHA2 230311Z 12015KT 04/03 A2978 RMK A01 T00380026  RH  092%=      5-min Rain = 0
KHA2 230312Z 12016KT 04/03 A2978 RMK A01 T00380026  RH  092%=      5-min Rain = 0
KHA2 230313Z 12017KT 04/03 A2978 RMK A01 T00380026  RH  092%=      5-min Rain = 0
KHA2 230314Z 11017KT 04/03 A2977 RMK A01 T00370026  RH  092%=      5-min Rain = 0
KHA2 230315Z 11016KT 04/03 A2977 RMK A01 T00370026  RH  092%=      5-min Rain = 0
KHA2 230316Z 11018KT 04/03 A2977 RMK A01 T00380026  RH  092%=      5-min Rain = 0
KHA2 230317Z 12017KT 04/03 A2977 RMK A01 T00380026  RH  092%=      5-min Rain = 0
KHA2 230318Z 12017KT 04/03 A2977 RMK A01 T00370026  RH  093%=      5-min Rain = 0
KHA2 230319Z 12016KT 04/03 A2978 RMK A01 T00370026  RH  093%=      5-min Rain = 0
KHA2 230320Z 11015KT 04/03 A2977 RMK A01 T00370026  RH  093%=      5-min Rain = 0
KHA2 230321Z 11015KT 04/03 A2977 RMK A01 T00370026  RH  093%=      5-min Rain = 0
KHA2 230322Z 12015KT 04/03 A2977 RMK A01 T00370026  RH  092%=      5-min Rain = 0
KHA2 230323Z 12016KT 04/03 A2977 RMK A01 T00370026  RH  092%=      5-min Rain = 0
KHA2 230324Z 12016KT 04/03 A2977 RMK A01 T00370026  RH  093%=      5-min Rain = 0
KHA2 230325Z 11016KT 04/03 A2977 RMK A01 T00370026  RH  093%=      5-min Rain = 0
KHA2 230326Z 12015KT 04/03 A2977 RMK A01 T00370026  RH  093%=      5-min Rain = 0
KHA2 230327Z 12017KT 04/03 A2977 RMK A01 T00370026  RH  093%=      5-min Rain = 0
KHA2 230328Z 12016KT 04/03 A2977 RMK A01 T00370026  RH  093%=      5-min Rain = 0
KHA2 230329Z 12016KT 04/03 A2977 RMK A01 T00370027  RH  093%=      5-min Rain = 0
KHA2 230330Z 12016KT 04/03 A2977 RMK A01 T00370027  RH  093%=      5-min Rain = 0
KHA2 230331Z 12014KT 04/03 A2978 RMK A01 T00370027  RH  093%=      5-min Rain = 0
KHA2 230332Z 12014KT 04/03 A2978 RMK A01 T00370027  RH  093%=      5-min Rain = 0
KHA2 230333Z 12015KT 04/03 A2978 RMK A01 T00370027  RH  093%=      5-min Rain = 0
KHA2 230334Z 11013G18KT 04/03 A2978 RMK A01 T00370027  RH  093%=      5-min Rain = 0
KHA2 230335Z 12014KT 04/03 A2978 RMK A01 T00370027  RH  093%=      5-min Rain = 0
KHA2 230336Z 12014KT 04/03 A2978 RMK A01 T00370027  RH  093%=      5-min Rain = 0
KHA2 230337Z 12017KT 04/03 A2978 RMK A01 T00370027  RH  093%=      5-min Rain = 0
KHA2 230338Z 12015KT 04/03 A2978 RMK A01 T00370027  RH  093%=      5-min Rain = 0
KHA2 230339Z 12016KT 04/03 A2978 RMK A01 T00360026  RH  093%=      5-min Rain = 0
KHA2 230340Z 12016KT 04/03 A2978 RMK A01 T00360026  RH  093%=      5-min Rain = 0
KHA2 230341Z 11013KT 04/03 A2978 RMK A01 T00360027  RH  093%=      5-min Rain = 0
KHA2 230342Z 12015KT 04/03 A2978 RMK A01 T00360026  RH  093%=      5-min Rain = 0
KHA2 230343Z 12015KT 04/03 A2978 RMK A01 T00360026  RH  093%=      5-min Rain = 0
KHA2 230344Z 12015KT 04/03 A2978 RMK A01 T00360026  RH  093%=      5-min Rain = 0
KHA2 230345Z 12017KT 04/03 A2978 RMK A01 T00360026  RH  093%=      5-min Rain = 0
KHA2 230346Z 12016KT 04/03 A2979 RMK A01 T00360026  RH  093%=      5-min Rain = 0
KHA2 230347Z 13017KT 04/03 A2979 RMK A01 T00370027  RH  093%=      5-min Rain = 0
KHA2 230348Z 13015KT 04/03 A2979 RMK A01 T00370027  RH  093%=      5-min Rain = 0
KHA2 230349Z 13017KT 04/03 A2979 RMK A01 T00370026  RH  093%=      5-min Rain = 0
KHA2 230350Z 13018KT 04/03 A2979 RMK A01 T00370026  RH  093%=      5-min Rain = 0
KHA2 230351Z 13015KT 04/03 A2979 RMK A01 T00370027  RH  093%=      5-min Rain = 0
KHA2 230352Z 13016KT 04/03 A2979 RMK A01 T00370026  RH  093%=      5-min Rain = 0
KHA2 230353Z 13017KT 04/03 A2979 RMK A01 T00370026  RH  093%=      5-min Rain = 0
KHA2 230354Z 13013KT 04/03 A2979 RMK A01 T00370026  RH  093%=      5-min Rain = 0
KHA2 230355Z 13015KT 04/03 A2979 RMK A01 T00370027  RH  093%=      5-min Rain = 0
KHA2 230356Z 13013KT 04/03 A2979 RMK A01 T00370027  RH  093%=      5-min Rain = 0
KHA2 230357Z 13013KT 04/03 A2979 RMK A01 T00370027  RH  093%=      5-min Rain = 0
KHA2 230358Z 13015KT 04/03 A2979 RMK A01 T00370027  RH  093%=      5-min Rain = 0
KHA2 230359Z 13013KT 04/03 A2978 RMK A01 T00370027  RH  093%=      5-min Rain = 0
KHA2 230400Z 13016KT 04/03 A2978 RMK A01 T00370028  RH  093%=      5-min Rain = 0
KHA2 230401Z 14015KT 04/03 A2979 RMK A01 T00370028  RH  094%=      5-min Rain = 0
KHA2 230402Z 13014KT 04/03 A2979 RMK A01 T00370027  RH  094%=      5-min Rain = 0
KHA2 230403Z 13014KT 04/03 A2979 RMK A01 T00370028  RH  094%=      5-min Rain = 0
KHA2 230404Z 13015KT 04/03 A2978 RMK A01 T00380028  RH  093%=      5-min Rain = 0
KHA2 230405Z 13015KT 04/03 A2978 RMK A01 T00380028  RH  093%=      5-min Rain = 0
KHA2 230406Z 13018KT 04/03 A2978 RMK A01 T00380028  RH  093%=      5-min Rain = 0
KHA2 230407Z 13019KT 04/03 A2977 RMK A01 T00380029  RH  093%=      5-min Rain = 0
KHA2 230408Z 13020KT 04/03 A2977 RMK A01 T00380029  RH  094%=      5-min Rain = 0
KHA2 230409Z 13021KT 04/03 A2977 RMK A01 T00380029  RH  094%=      5-min Rain = 0
KHA2 230410Z 13022KT 04/03 A2977 RMK A01 T00380029  RH  094%=      5-min Rain = 0
KHA2 230411Z 13019KT 04/03 A2976 RMK A01 T00380029  RH  094%=      5-min Rain = 0
KHA2 230412Z 13022KT 04/03 A2976 RMK A01 T00380029  RH  094%=      5-min Rain = 0
KHA2 230413Z 12020KT 04/03 A2976 RMK A01 T00380029  RH  094%=      5-min Rain = 0
KHA2 230414Z 13018G23KT 04/03 A2976 RMK A01 T00380030  RH  094%=      5-min Rain = 0
KHA2 230415Z 13019KT 04/03 A2977 RMK A01 T00380030  RH  094%=      5-min Rain = 0
KHA2 230416Z 14021KT 04/03 A2977 RMK A01 T00380030  RH  094%=      5-min Rain = 0
KHA2 230417Z 14021KT 04/03 A2978 RMK A01 T00380030  RH  095%=      5-min Rain = 0
KHA2 230418Z 13018KT 04/03 A2978 RMK A01 T00380031  RH  095%=      5-min Rain = 0
KHA2 230419Z 13016KT 04/03 A2978 RMK A01 T00380031  RH  095%=      5-min Rain = 0
KHA2 230420Z 13017KT 04/03 A2978 RMK A01 T00380031  RH  095%=      5-min Rain = 0
KHA2 230421Z 14018KT 04/03 A2978 RMK A01 T00390032  RH  095%=      5-min Rain = 0
KHA2 230422Z 14017KT 04/03 A2978 RMK A01 T00390032  RH  095%=      5-min Rain = 0
KHA2 230423Z 14018KT 04/03 A2978 RMK A01 T00390032  RH  095%=      5-min Rain = 0
KHA2 230424Z 14018KT 04/03 A2979 RMK A01 T00390032  RH  096%=      5-min Rain = 0
KHA2 230425Z 14016KT 04/03 A2979 RMK A01 T00390033  RH  096%=      5-min Rain = 0
KHA2 230426Z 14014KT 04/03 A2979 RMK A01 T00380033  RH  096%=      5-min Rain = 0
KHA2 230427Z 14010KT 04/03 A2979 RMK A01 T00390033  RH  096%=      5-min Rain = 0
KHA2 230428Z 14009KT 04/03 A2979 RMK A01 T00390034  RH  097%=      5-min Rain = 0
KHA2 230429Z 14008KT 04/03 A2979 RMK A01 T00380033  RH  097%=      5-min Rain = 0
KHA2 230430Z 14007KT 04/03 A2978 RMK A01 T00390034  RH  097%=      5-min Rain = 0
KHA2 230431Z 15004KT 04/03 A2979 RMK A01 T00390034  RH  097%=      5-min Rain = 0
KHA2 230432Z 17005KT 04/03 A2979 RMK A01 T00390034  RH  097%=      5-min Rain = 0
KHA2 230433Z 17005KT 04/03 A2979 RMK A01 T00380034  RH  097%=      5-min Rain = 0
KHA2 230434Z 17004KT 04/03 A2979 RMK A01 T00380034  RH  097%=      5-min Rain = 0
KHA2 230435Z 17003KT 04/03 A2979 RMK A01 T00390034  RH  097%=      5-min Rain = 0
KHA2 230436Z 15002KT 04/03 A2978 RMK A01 T00380034  RH  097%=      5-min Rain = 0
KHA2 230437Z 14004KT 04/03 A2978 RMK A01 T00390034  RH  097%=      5-min Rain = 0
KHA2 230438Z 12006KT 04/03 A2978 RMK A01 T00390034  RH  097%=      5-min Rain = 0
KHA2 230439Z 13008KT 04/04 A2978 RMK A01 T00390035  RH  097%=      5-min Rain = 0
KHA2 230440Z 13009KT 04/04 A2978 RMK A01 T00390035  RH  097%=      5-min Rain = 0
KHA2 230441Z 13009KT 04/04 A2978 RMK A01 T00380035  RH  097%=      5-min Rain = 0
KHA2 230442Z 13009KT 04/04 A2978 RMK A01 T00380035  RH  098%=      5-min Rain = 0
KHA2 230443Z 14010KT 04/04 A2978 RMK A01 T00390035  RH  098%=      5-min Rain = 0
KHA2 230444Z 14010KT 04/04 A2978 RMK A01 T00380035  RH  098%=      5-min Rain = 0
KHA2 230445Z 14010KT 04/04 A2978 RMK A01 T00390036  RH  098%=      5-min Rain = 0
KHA2 230446Z 13010KT 04/04 A2978 RMK A01 T00390036  RH  098%=      5-min Rain = 0
KHA2 230447Z 12008KT 04/04 A2977 RMK A01 T00380035  RH  098%=      5-min Rain = 0
KHA2 230448Z 11007KT 04/04 A2977 RMK A01 T00390036  RH  098%=      5-min Rain = 0
KHA2 230449Z 12008KT 04/04 A2977 RMK A01 T00380036  RH  098%=      5-min Rain = 0
KHA2 230450Z 14011KT 04/04 A2978 RMK A01 T00390036  RH  098%=      5-min Rain = 0
KHA2 230451Z 14012KT 04/04 A2978 RMK A01 T00380036  RH  098%=      5-min Rain = 0
KHA2 230452Z 13010KT 04/04 A2978 RMK A01 T00390036  RH  098%=      5-min Rain = 0
KHA2 230453Z 14008KT 04/04 A2978 RMK A01 T00380036  RH  098%=      5-min Rain = 0
KHA2 230454Z 13008KT 04/04 A2977 RMK A01 T00390036  RH  098%=      5-min Rain = 0
KHA2 230455Z 13009KT 04/04 A2977 RMK A01 T00380036  RH  098%=      5-min Rain = 0
KHA2 230456Z 12011KT 04/04 A2977 RMK A01 T00390036  RH  099%=      5-min Rain = 0
KHA2 230457Z 13010KT 04/04 A2977 RMK A01 T00380036  RH  099%=      5-min Rain = 0
KHA2 230458Z 13011KT 04/04 A2977 RMK A01 T00380036  RH  099%=      5-min Rain = 0
KHA2 230459Z 13009KT 04/04 A2977 RMK A01 T00380036  RH  099%=      5-min Rain = 0
KHA2 230500Z 14009KT 04/04 A2977 RMK A01 T00380036  RH  099%=      5-min Rain = 0
KHA2 230501Z 14008KT 04/04 A2977 RMK A01 T00390037  RH  099%=      5-min Rain = 0
KHA2 230502Z 14007KT 04/04 A2977 RMK A01 T00390037  RH  099%=      5-min Rain = 0
KHA2 230503Z 15008KT 04/04 A2977 RMK A01 T00380036  RH  099%=      5-min Rain = 0
KHA2 230504Z 14008KT 04/04 A2977 RMK A01 T00390037  RH  099%=      5-min Rain = 0
KHA2 230505Z 14007KT 04/04 A2977 RMK A01 T00380037  RH  099%=      5-min Rain = 0
KHA2 230506Z 15006KT 04/04 A2977 RMK A01 T00380037  RH  099%=      5-min Rain = 0
KHA2 230507Z 16006KT 04/04 A2977 RMK A01 T00380037  RH  099%=      5-min Rain = 0
KHA2 230508Z 15007KT 04/04 A2977 RMK A01 T00390037  RH  099%=      5-min Rain = 0
KHA2 230509Z 16007KT 04/04 A2978 RMK A01 T00390037  RH  099%=      5-min Rain = 0
KHA2 230510Z 16008KT 04/04 A2978 RMK A01 T00390037  RH  099%=      5-min Rain = 0
KHA2 230511Z 16008KT 04/04 A2977 RMK A01 T00390037  RH  099%=      5-min Rain = 0
KHA2 230512Z 15007KT 04/04 A2977 RMK A01 T00390037  RH  099%=      5-min Rain = 0
KHA2 230513Z 16007KT 04/04 A2977 RMK A01 T00390038  RH  099%=      5-min Rain = 0
KHA2 230514Z 15008KT 04/04 A2977 RMK A01 T00390037  RH  099%=      5-min Rain = 0
KHA2 230515Z 15009KT 04/04 A2977 RMK A01 T00390038  RH  099%=      5-min Rain = 0
KHA2 230516Z 15008KT 04/04 A2977 RMK A01 T00390038  RH  099%=      5-min Rain = 0
KHA2 230517Z 15009KT 04/04 A2978 RMK A01 T00390037  RH  099%=      5-min Rain = 0
KHA2 230518Z 15008KT 04/04 A2977 RMK A01 T00390038  RH  099%=      5-min Rain = 0
KHA2 230519Z 15007KT 04/04 A2977 RMK A01 T00390038  RH  099%=      5-min Rain = 0
KHA2 230520Z 15007KT 04/04 A2977 RMK A01 T00390038  RH  099%=      5-min Rain = 0
KHA2 230521Z 15008KT 04/04 A2977 RMK A01 T00390038  RH  099%=      5-min Rain = 0
KHA2 230522Z 15008KT 04/04 A2977 RMK A01 T00390038  RH  099%=      5-min Rain = 0
KHA2 230523Z 14008KT 04/04 A2977 RMK A01 T00390038  RH  099%=      5-min Rain = 0
KHA2 230524Z 14008KT 04/04 A2977 RMK A01 T00400038  RH  099%=      5-min Rain = 0
KHA2 230525Z 14007KT 04/04 A2977 RMK A01 T00390038  RH  099%=      5-min Rain = 0
KHA2 230526Z 14008KT 04/04 A2977 RMK A01 T00390038  RH  099%=      5-min Rain = 0
KHA2 230527Z 14009KT 04/04 A2977 RMK A01 T00390038  RH  099%=      5-min Rain = 0
KHA2 230528Z 14009KT 04/04 A2977 RMK A01 T00390038  RH  099%=      5-min Rain = 0
KHA2 230529Z 14010KT 04/04 A2976 RMK A01 T00390038  RH  099%=      5-min Rain = 0
KHA2 230530Z 14010KT 04/04 A2976 RMK A01 T00390038  RH  099%=      5-min Rain = 0
KHA2 230531Z 13009KT 04/04 A2976 RMK A01 T00400039  RH  099%=      5-min Rain = 0
KHA2 230532Z 14009KT 04/04 A2975 RMK A01 T00400039  RH  099%=      5-min Rain = 0
KHA2 230533Z 13009KT 04/04 A2975 RMK A01 T00400039  RH  099%=      5-min Rain = 0
KHA2 230534Z 13010KT 04/04 A2975 RMK A01 T00400039  RH  099%=      5-min Rain = 0
KHA2 230535Z 12008KT 04/04 A2975 RMK A01 T00400039  RH  099%=      5-min Rain = 0
KHA2 230536Z 13010KT 04/04 A2975 RMK A01 T00400039  RH  099%=      5-min Rain = 0
KHA2 230537Z 13010KT 04/04 A2975 RMK A01 T00400039  RH  099%=      5-min Rain = 0
KHA2 230538Z 13009KT 04/04 A2975 RMK A01 T00400039  RH  099%=      5-min Rain = 0
KHA2 230539Z 13009KT 04/04 A2975 RMK A01 T00400039  RH  099%=      5-min Rain = 0
KHA2 230540Z 13009KT 04/04 A2975 RMK A01 T00400039  RH  099%=      5-min Rain = 0
KHA2 230541Z 13010KT 04/04 A2975 RMK A01 T00400039  RH  099%=      5-min Rain = 0
KHA2 230542Z 13010KT 04/04 A2974 RMK A01 T00410040  RH  099%=      5-min Rain = 0
KHA2 230543Z 12009KT 04/04 A2974 RMK A01 T00410040  RH  099%=      5-min Rain = 0
KHA2 230544Z 12009KT 04/04 A2974 RMK A01 T00410040  RH  099%=      5-min Rain = 0
KHA2 230545Z 12009KT 04/04 A2974 RMK A01 T00410040  RH  099%=      5-min Rain = 0
KHA2 230546Z 12010KT 04/04 A2973 RMK A01 T00410040  RH  099%=      5-min Rain = 0
KHA2 230547Z 11008KT 04/04 A2973 RMK A01 T00400040  RH  099%=      5-min Rain = 0
KHA2 230548Z 12010KT 04/04 A2973 RMK A01 T00410040  RH  099%=      5-min Rain = 0
KHA2 230549Z 13013KT 04/04 A2974 RMK A01 T00410041  RH  099%=      5-min Rain = 0
KHA2 230550Z 13012KT 04/04 A2974 RMK A01 T00410040  RH  099%=      5-min Rain = 0
KHA2 230551Z 13012KT 04/04 A2974 RMK A01 T00420041  RH  099%=      5-min Rain = 0
KHA2 230552Z 12012KT 04/04 A2973 RMK A01 T00420041  RH  099%=      5-min Rain = 0
KHA2 230553Z 11012KT 04/04 A2972 RMK A01 T00420041  RH  099%=      5-min Rain = 0
KHA2 230554Z 10011KT 04/04 A2972 RMK A01 T00420041  RH  099%=      5-min Rain = 0
KHA2 230555Z 11013KT 04/04 A2971 RMK A01 T00420041  RH  099%=      5-min Rain = 0
KHA2 230556Z 11015KT 04/04 A2972 RMK A01 T00420041  RH  099%=      5-min Rain = 0
KHA2 230557Z 12014KT 04/04 A2972 RMK A01 T00420041  RH  099%=      5-min Rain = 0
KHA2 230558Z 12014KT 04/04 A2972 RMK A01 T00420041  RH  099%=      5-min Rain = 0
KHA2 230559Z 12014KT 04/04 A2972 RMK A01 T00420041  RH  099%=      5-min Rain = 0

Page generated in 0.2917 seconds.